<?xml version="1.0" encoding="UTF-8" standalone="no" ?>
<gpx xmlns="http://www.topografix.com/GPX/1/1" xmlns:xsi="http://www.w3.org/2001/XMLSchema-instance" xsi:schemaLocation="http://www.topografix.com/GPX/1/1 http://www.topografix.com/GPX/1/1/gpx.xsd" version="1.1" creator="VisuGPX - https://www.visugpx.com">
  <metadata>
    <name>Pesmes</name>
    <desc><![CDATA[Sortie vallonnée et chaude ]]></desc>
  </metadata>
  <trk>
    <name><![CDATA[pesmes]]></name>
    <trkseg>
      <trkpt lat="47.07575" lon="5.49182">
        <ele>190.478394</ele>
        <time>2011-06-03T13:50:05Z</time>
      </trkpt>
      <trkpt lat="47.07572" lon="5.4917">
        <ele>190.478394</ele>
        <time>2011-06-03T13:50:07Z</time>
      </trkpt>
      <trkpt lat="47.0756" lon="5.49144">
        <ele>189.997681</ele>
        <time>2011-06-03T13:50:16Z</time>
      </trkpt>
      <trkpt lat="47.07561" lon="5.49144">
        <ele>190.958984</ele>
        <time>2011-06-03T13:50:20Z</time>
      </trkpt>
      <trkpt lat="47.07565" lon="5.4914">
        <ele>190.958984</ele>
        <time>2011-06-03T13:50:22Z</time>
      </trkpt>
      <trkpt lat="47.07598" lon="5.49103">
        <ele>192.401123</ele>
        <time>2011-06-03T13:50:31Z</time>
      </trkpt>
      <trkpt lat="47.07667" lon="5.49">
        <ele>189.516968</ele>
        <time>2011-06-03T13:50:50Z</time>
      </trkpt>
      <trkpt lat="47.0768" lon="5.48988">
        <ele>189.036377</ele>
        <time>2011-06-03T13:50:53Z</time>
      </trkpt>
      <trkpt lat="47.07691" lon="5.48963">
        <ele>189.036377</ele>
        <time>2011-06-03T13:50:57Z</time>
      </trkpt>
      <trkpt lat="47.07693" lon="5.48933">
        <ele>189.036377</ele>
        <time>2011-06-03T13:51:01Z</time>
      </trkpt>
      <trkpt lat="47.07725" lon="5.48898">
        <ele>189.036377</ele>
        <time>2011-06-03T13:51:10Z</time>
      </trkpt>
      <trkpt lat="47.07745" lon="5.48924">
        <ele>189.036377</ele>
        <time>2011-06-03T13:51:17Z</time>
      </trkpt>
      <trkpt lat="47.07749" lon="5.48945">
        <ele>189.516968</ele>
        <time>2011-06-03T13:51:20Z</time>
      </trkpt>
      <trkpt lat="47.07789" lon="5.48973">
        <ele>188.555786</ele>
        <time>2011-06-03T13:51:29Z</time>
      </trkpt>
      <trkpt lat="47.07799" lon="5.48966">
        <ele>188.555786</ele>
        <time>2011-06-03T13:51:31Z</time>
      </trkpt>
      <trkpt lat="47.07836" lon="5.48969">
        <ele>188.555786</ele>
        <time>2011-06-03T13:51:38Z</time>
      </trkpt>
      <trkpt lat="47.07902" lon="5.4894">
        <ele>188.555786</ele>
        <time>2011-06-03T13:51:50Z</time>
      </trkpt>
      <trkpt lat="47.07913" lon="5.48918">
        <ele>189.036377</ele>
        <time>2011-06-03T13:51:53Z</time>
      </trkpt>
      <trkpt lat="47.07973" lon="5.48735">
        <ele>188.555786</ele>
        <time>2011-06-03T13:52:15Z</time>
      </trkpt>
      <trkpt lat="47.08045" lon="5.48529">
        <ele>188.555786</ele>
        <time>2011-06-03T13:52:39Z</time>
      </trkpt>
      <trkpt lat="47.08058" lon="5.48494">
        <ele>188.555786</ele>
        <time>2011-06-03T13:52:43Z</time>
      </trkpt>
      <trkpt lat="47.08085" lon="5.48483">
        <ele>188.555786</ele>
        <time>2011-06-03T13:52:48Z</time>
      </trkpt>
      <trkpt lat="47.08204" lon="5.48579">
        <ele>189.036377</ele>
        <time>2011-06-03T13:53:10Z</time>
      </trkpt>
      <trkpt lat="47.08284" lon="5.48687">
        <ele>189.036377</ele>
        <time>2011-06-03T13:53:28Z</time>
      </trkpt>
      <trkpt lat="47.08359" lon="5.48807">
        <ele>189.516968</ele>
        <time>2011-06-03T13:53:49Z</time>
      </trkpt>
      <trkpt lat="47.0837" lon="5.48824">
        <ele>189.516968</ele>
        <time>2011-06-03T13:53:52Z</time>
      </trkpt>
      <trkpt lat="47.08377" lon="5.48853">
        <ele>189.997681</ele>
        <time>2011-06-03T13:53:56Z</time>
      </trkpt>
      <trkpt lat="47.08393" lon="5.48869">
        <ele>189.997681</ele>
        <time>2011-06-03T13:54:00Z</time>
      </trkpt>
      <trkpt lat="47.08515" lon="5.49062">
        <ele>189.516968</ele>
        <time>2011-06-03T13:54:32Z</time>
      </trkpt>
      <trkpt lat="47.08589" lon="5.49145">
        <ele>189.997681</ele>
        <time>2011-06-03T13:54:48Z</time>
      </trkpt>
      <trkpt lat="47.08624" lon="5.49189">
        <ele>189.997681</ele>
        <time>2011-06-03T13:54:56Z</time>
      </trkpt>
      <trkpt lat="47.08637" lon="5.49219">
        <ele>190.478394</ele>
        <time>2011-06-03T13:55:00Z</time>
      </trkpt>
      <trkpt lat="47.08693" lon="5.49416">
        <ele>190.478394</ele>
        <time>2011-06-03T13:55:23Z</time>
      </trkpt>
      <trkpt lat="47.08696" lon="5.49432">
        <ele>190.958984</ele>
        <time>2011-06-03T13:55:25Z</time>
      </trkpt>
      <trkpt lat="47.08683" lon="5.49493">
        <ele>191.439575</ele>
        <time>2011-06-03T13:55:34Z</time>
      </trkpt>
      <trkpt lat="47.08674" lon="5.495">
        <ele>191.439575</ele>
        <time>2011-06-03T13:55:36Z</time>
      </trkpt>
      <trkpt lat="47.08668" lon="5.49544">
        <ele>192.401123</ele>
        <time>2011-06-03T13:55:42Z</time>
      </trkpt>
      <trkpt lat="47.08679" lon="5.49578">
        <ele>193.362305</ele>
        <time>2011-06-03T13:55:47Z</time>
      </trkpt>
      <trkpt lat="47.08715" lon="5.49586">
        <ele>193.362305</ele>
        <time>2011-06-03T13:55:55Z</time>
      </trkpt>
      <trkpt lat="47.08734" lon="5.49538">
        <ele>194.804321</ele>
        <time>2011-06-03T13:56:03Z</time>
      </trkpt>
      <trkpt lat="47.08738" lon="5.49534">
        <ele>194.804321</ele>
        <time>2011-06-03T13:56:04Z</time>
      </trkpt>
      <trkpt lat="47.08864" lon="5.49453">
        <ele>194.32373</ele>
        <time>2011-06-03T13:56:31Z</time>
      </trkpt>
      <trkpt lat="47.08871" lon="5.4945">
        <ele>193.843018</ele>
        <time>2011-06-03T13:56:41Z</time>
      </trkpt>
      <trkpt lat="47.08883" lon="5.49456">
        <ele>193.843018</ele>
        <time>2011-06-03T13:56:53Z</time>
      </trkpt>
      <trkpt lat="47.08906" lon="5.49515">
        <ele>192.401123</ele>
        <time>2011-06-03T13:57:01Z</time>
      </trkpt>
      <trkpt lat="47.08966" lon="5.4962">
        <ele>192.401123</ele>
        <time>2011-06-03T13:57:18Z</time>
      </trkpt>
      <trkpt lat="47.08983" lon="5.49642">
        <ele>192.881714</ele>
        <time>2011-06-03T13:57:22Z</time>
      </trkpt>
      <trkpt lat="47.09077" lon="5.49721">
        <ele>192.881714</ele>
        <time>2011-06-03T13:57:41Z</time>
      </trkpt>
      <trkpt lat="47.09152" lon="5.49781">
        <ele>192.881714</ele>
        <time>2011-06-03T13:57:55Z</time>
      </trkpt>
      <trkpt lat="47.09255" lon="5.4987">
        <ele>193.362305</ele>
        <time>2011-06-03T13:58:15Z</time>
      </trkpt>
      <trkpt lat="47.0931" lon="5.49928">
        <ele>193.843018</ele>
        <time>2011-06-03T13:58:26Z</time>
      </trkpt>
      <trkpt lat="47.09332" lon="5.49932">
        <ele>194.804321</ele>
        <time>2011-06-03T13:58:31Z</time>
      </trkpt>
      <trkpt lat="47.09351" lon="5.49909">
        <ele>195.284912</ele>
        <time>2011-06-03T13:58:36Z</time>
      </trkpt>
      <trkpt lat="47.09369" lon="5.49918">
        <ele>194.32373</ele>
        <time>2011-06-03T13:58:41Z</time>
      </trkpt>
      <trkpt lat="47.09375" lon="5.49935">
        <ele>193.843018</ele>
        <time>2011-06-03T13:58:43Z</time>
      </trkpt>
      <trkpt lat="47.09376" lon="5.49993">
        <ele>192.401123</ele>
        <time>2011-06-03T13:58:51Z</time>
      </trkpt>
      <trkpt lat="47.09377" lon="5.50017">
        <ele>191.439575</ele>
        <time>2011-06-03T13:59:02Z</time>
      </trkpt>
      <trkpt lat="47.09376" lon="5.5002">
        <ele>192.401123</ele>
        <time>2011-06-03T13:59:25Z</time>
      </trkpt>
      <trkpt lat="47.09373" lon="5.50027">
        <ele>192.401123</ele>
        <time>2011-06-03T13:59:29Z</time>
      </trkpt>
      <trkpt lat="47.09368" lon="5.50086">
        <ele>192.881714</ele>
        <time>2011-06-03T13:59:42Z</time>
      </trkpt>
      <trkpt lat="47.09367" lon="5.50167">
        <ele>192.881714</ele>
        <time>2011-06-03T13:59:54Z</time>
      </trkpt>
      <trkpt lat="47.09363" lon="5.50253">
        <ele>193.843018</ele>
        <time>2011-06-03T14:00:05Z</time>
      </trkpt>
      <trkpt lat="47.09362" lon="5.50287">
        <ele>194.32373</ele>
        <time>2011-06-03T14:00:10Z</time>
      </trkpt>
      <trkpt lat="47.09346" lon="5.50294">
        <ele>195.284912</ele>
        <time>2011-06-03T14:00:17Z</time>
      </trkpt>
      <trkpt lat="47.09319" lon="5.50337">
        <ele>193.362305</ele>
        <time>2011-06-03T14:00:24Z</time>
      </trkpt>
      <trkpt lat="47.09307" lon="5.5039">
        <ele>193.362305</ele>
        <time>2011-06-03T14:00:30Z</time>
      </trkpt>
      <trkpt lat="47.09297" lon="5.50423">
        <ele>192.401123</ele>
        <time>2011-06-03T14:00:34Z</time>
      </trkpt>
      <trkpt lat="47.09292" lon="5.50443">
        <ele>191.920288</ele>
        <time>2011-06-03T14:00:38Z</time>
      </trkpt>
      <trkpt lat="47.09295" lon="5.5044">
        <ele>191.920288</ele>
        <time>2011-06-03T14:00:41Z</time>
      </trkpt>
      <trkpt lat="47.09303" lon="5.50444">
        <ele>192.401123</ele>
        <time>2011-06-03T14:00:44Z</time>
      </trkpt>
      <trkpt lat="47.0932" lon="5.5048">
        <ele>193.362305</ele>
        <time>2011-06-03T14:00:51Z</time>
      </trkpt>
      <trkpt lat="47.09316" lon="5.50579">
        <ele>195.284912</ele>
        <time>2011-06-03T14:01:06Z</time>
      </trkpt>
      <trkpt lat="47.09312" lon="5.507">
        <ele>195.284912</ele>
        <time>2011-06-03T14:01:22Z</time>
      </trkpt>
      <trkpt lat="47.09308" lon="5.50784">
        <ele>195.284912</ele>
        <time>2011-06-03T14:01:32Z</time>
      </trkpt>
      <trkpt lat="47.09303" lon="5.50833">
        <ele>194.32373</ele>
        <time>2011-06-03T14:01:39Z</time>
      </trkpt>
      <trkpt lat="47.09309" lon="5.5087">
        <ele>194.32373</ele>
        <time>2011-06-03T14:01:47Z</time>
      </trkpt>
      <trkpt lat="47.09301" lon="5.50896">
        <ele>194.804321</ele>
        <time>2011-06-03T14:01:51Z</time>
      </trkpt>
      <trkpt lat="47.09295" lon="5.51029">
        <ele>195.765625</ele>
        <time>2011-06-03T14:02:06Z</time>
      </trkpt>
      <trkpt lat="47.09287" lon="5.51188">
        <ele>195.284912</ele>
        <time>2011-06-03T14:02:23Z</time>
      </trkpt>
      <trkpt lat="47.09283" lon="5.51303">
        <ele>195.284912</ele>
        <time>2011-06-03T14:02:35Z</time>
      </trkpt>
      <trkpt lat="47.09279" lon="5.5135">
        <ele>195.284912</ele>
        <time>2011-06-03T14:02:40Z</time>
      </trkpt>
      <trkpt lat="47.09289" lon="5.51517">
        <ele>195.284912</ele>
        <time>2011-06-03T14:02:57Z</time>
      </trkpt>
      <trkpt lat="47.09327" lon="5.51718">
        <ele>195.284912</ele>
        <time>2011-06-03T14:03:18Z</time>
      </trkpt>
      <trkpt lat="47.09334" lon="5.51746">
        <ele>195.765625</ele>
        <time>2011-06-03T14:03:21Z</time>
      </trkpt>
      <trkpt lat="47.09373" lon="5.5195">
        <ele>195.765625</ele>
        <time>2011-06-03T14:03:42Z</time>
      </trkpt>
      <trkpt lat="47.09415" lon="5.52156">
        <ele>195.765625</ele>
        <time>2011-06-03T14:04:03Z</time>
      </trkpt>
      <trkpt lat="47.0942" lon="5.52174">
        <ele>195.765625</ele>
        <time>2011-06-03T14:04:05Z</time>
      </trkpt>
      <trkpt lat="47.09456" lon="5.52356">
        <ele>195.765625</ele>
        <time>2011-06-03T14:04:24Z</time>
      </trkpt>
      <trkpt lat="47.0949" lon="5.52524">
        <ele>195.284912</ele>
        <time>2011-06-03T14:04:44Z</time>
      </trkpt>
      <trkpt lat="47.09525" lon="5.52686">
        <ele>197.20752</ele>
        <time>2011-06-03T14:05:05Z</time>
      </trkpt>
      <trkpt lat="47.09529" lon="5.52696">
        <ele>197.688232</ele>
        <time>2011-06-03T14:05:08Z</time>
      </trkpt>
      <trkpt lat="47.09547" lon="5.52688">
        <ele>198.168945</ele>
        <time>2011-06-03T14:05:16Z</time>
      </trkpt>
      <trkpt lat="47.09553" lon="5.52703">
        <ele>197.688232</ele>
        <time>2011-06-03T14:05:20Z</time>
      </trkpt>
      <trkpt lat="47.09558" lon="5.52731">
        <ele>195.765625</ele>
        <time>2011-06-03T14:05:23Z</time>
      </trkpt>
      <trkpt lat="47.09587" lon="5.52876">
        <ele>195.765625</ele>
        <time>2011-06-03T14:05:39Z</time>
      </trkpt>
      <trkpt lat="47.09608" lon="5.5298">
        <ele>195.765625</ele>
        <time>2011-06-03T14:05:51Z</time>
      </trkpt>
      <trkpt lat="47.09627" lon="5.5308">
        <ele>196.246338</ele>
        <time>2011-06-03T14:06:02Z</time>
      </trkpt>
      <trkpt lat="47.09639" lon="5.53141">
        <ele>195.765625</ele>
        <time>2011-06-03T14:06:09Z</time>
      </trkpt>
      <trkpt lat="47.09639" lon="5.53175">
        <ele>195.765625</ele>
        <time>2011-06-03T14:06:13Z</time>
      </trkpt>
      <trkpt lat="47.09646" lon="5.53201">
        <ele>195.765625</ele>
        <time>2011-06-03T14:06:17Z</time>
      </trkpt>
      <trkpt lat="47.09652" lon="5.53214">
        <ele>195.765625</ele>
        <time>2011-06-03T14:06:19Z</time>
      </trkpt>
      <trkpt lat="47.09695" lon="5.53416">
        <ele>195.765625</ele>
        <time>2011-06-03T14:06:44Z</time>
      </trkpt>
      <trkpt lat="47.09751" lon="5.53689">
        <ele>196.726929</ele>
        <time>2011-06-03T14:07:15Z</time>
      </trkpt>
      <trkpt lat="47.09764" lon="5.53761">
        <ele>197.20752</ele>
        <time>2011-06-03T14:07:26Z</time>
      </trkpt>
      <trkpt lat="47.09775" lon="5.53765">
        <ele>197.688232</ele>
        <time>2011-06-03T14:07:30Z</time>
      </trkpt>
      <trkpt lat="47.09803" lon="5.53776">
        <ele>197.688232</ele>
        <time>2011-06-03T14:07:36Z</time>
      </trkpt>
      <trkpt lat="47.09876" lon="5.53834">
        <ele>201.533569</ele>
        <time>2011-06-03T14:07:53Z</time>
      </trkpt>
      <trkpt lat="47.09919" lon="5.53846">
        <ele>203.93689</ele>
        <time>2011-06-03T14:08:03Z</time>
      </trkpt>
      <trkpt lat="47.0994" lon="5.53837">
        <ele>204.898071</ele>
        <time>2011-06-03T14:08:08Z</time>
      </trkpt>
      <trkpt lat="47.10036" lon="5.53727">
        <ele>207.782104</ele>
        <time>2011-06-03T14:08:35Z</time>
      </trkpt>
      <trkpt lat="47.10053" lon="5.53707">
        <ele>207.782104</ele>
        <time>2011-06-03T14:08:40Z</time>
      </trkpt>
      <trkpt lat="47.10088" lon="5.53738">
        <ele>207.782104</ele>
        <time>2011-06-03T14:08:49Z</time>
      </trkpt>
      <trkpt lat="47.10157" lon="5.53835">
        <ele>207.301392</ele>
        <time>2011-06-03T14:09:06Z</time>
      </trkpt>
      <trkpt lat="47.10213" lon="5.53936">
        <ele>207.782104</ele>
        <time>2011-06-03T14:09:21Z</time>
      </trkpt>
      <trkpt lat="47.10269" lon="5.54034">
        <ele>207.782104</ele>
        <time>2011-06-03T14:09:36Z</time>
      </trkpt>
      <trkpt lat="47.10306" lon="5.54041">
        <ele>208.262817</ele>
        <time>2011-06-03T14:09:43Z</time>
      </trkpt>
      <trkpt lat="47.10424" lon="5.53973">
        <ele>209.224121</ele>
        <time>2011-06-03T14:10:04Z</time>
      </trkpt>
      <trkpt lat="47.10522" lon="5.53894">
        <ele>209.224121</ele>
        <time>2011-06-03T14:10:20Z</time>
      </trkpt>
      <trkpt lat="47.10568" lon="5.53827">
        <ele>212.108032</ele>
        <time>2011-06-03T14:10:31Z</time>
      </trkpt>
      <trkpt lat="47.10669" lon="5.53687">
        <ele>214.03064</ele>
        <time>2011-06-03T14:10:55Z</time>
      </trkpt>
      <trkpt lat="47.10744" lon="5.53593">
        <ele>216.914673</ele>
        <time>2011-06-03T14:11:13Z</time>
      </trkpt>
      <trkpt lat="47.10835" lon="5.53435">
        <ele>219.317993</ele>
        <time>2011-06-03T14:11:38Z</time>
      </trkpt>
      <trkpt lat="47.109" lon="5.53325">
        <ele>222.682495</ele>
        <time>2011-06-03T14:11:58Z</time>
      </trkpt>
      <trkpt lat="47.11002" lon="5.53179">
        <ele>221.721191</ele>
        <time>2011-06-03T14:12:23Z</time>
      </trkpt>
      <trkpt lat="47.11081" lon="5.53074">
        <ele>218.356567</ele>
        <time>2011-06-03T14:12:37Z</time>
      </trkpt>
      <trkpt lat="47.11147" lon="5.52991">
        <ele>218.356567</ele>
        <time>2011-06-03T14:12:50Z</time>
      </trkpt>
      <trkpt lat="47.11169" lon="5.52966">
        <ele>221.240601</ele>
        <time>2011-06-03T14:13:01Z</time>
      </trkpt>
      <trkpt lat="47.11167" lon="5.52942">
        <ele>221.240601</ele>
        <time>2011-06-03T14:13:09Z</time>
      </trkpt>
      <trkpt lat="47.11159" lon="5.52927">
        <ele>221.721191</ele>
        <time>2011-06-03T14:13:12Z</time>
      </trkpt>
      <trkpt lat="47.11158" lon="5.52897">
        <ele>221.721191</ele>
        <time>2011-06-03T14:13:17Z</time>
      </trkpt>
      <trkpt lat="47.11186" lon="5.5285">
        <ele>225.085938</ele>
        <time>2011-06-03T14:13:28Z</time>
      </trkpt>
      <trkpt lat="47.11212" lon="5.5281">
        <ele>227.008545</ele>
        <time>2011-06-03T14:13:39Z</time>
      </trkpt>
      <trkpt lat="47.11241" lon="5.5275">
        <ele>226.047119</ele>
        <time>2011-06-03T14:13:51Z</time>
      </trkpt>
      <trkpt lat="47.11247" lon="5.52728">
        <ele>225.566528</ele>
        <time>2011-06-03T14:13:53Z</time>
      </trkpt>
      <trkpt lat="47.1126" lon="5.52652">
        <ele>222.682495</ele>
        <time>2011-06-03T14:14:00Z</time>
      </trkpt>
      <trkpt lat="47.11267" lon="5.52619">
        <ele>221.240601</ele>
        <time>2011-06-03T14:14:03Z</time>
      </trkpt>
      <trkpt lat="47.11282" lon="5.52593">
        <ele>219.798584</ele>
        <time>2011-06-03T14:14:10Z</time>
      </trkpt>
      <trkpt lat="47.11282" lon="5.52592">
        <ele>220.759888</ele>
        <time>2011-06-03T14:14:43Z</time>
      </trkpt>
      <trkpt lat="47.11294" lon="5.52594">
        <ele>220.759888</ele>
        <time>2011-06-03T14:14:48Z</time>
      </trkpt>
      <trkpt lat="47.11313" lon="5.52601">
        <ele>220.759888</ele>
        <time>2011-06-03T14:14:52Z</time>
      </trkpt>
      <trkpt lat="47.11329" lon="5.52593">
        <ele>220.279175</ele>
        <time>2011-06-03T14:14:56Z</time>
      </trkpt>
      <trkpt lat="47.11384" lon="5.52491">
        <ele>221.721191</ele>
        <time>2011-06-03T14:15:13Z</time>
      </trkpt>
      <trkpt lat="47.11387" lon="5.52486">
        <ele>222.201782</ele>
        <time>2011-06-03T14:15:14Z</time>
      </trkpt>
      <trkpt lat="47.1144" lon="5.52392">
        <ele>220.759888</ele>
        <time>2011-06-03T14:15:29Z</time>
      </trkpt>
      <trkpt lat="47.11478" lon="5.52325">
        <ele>219.317993</ele>
        <time>2011-06-03T14:15:38Z</time>
      </trkpt>
      <trkpt lat="47.11494" lon="5.52284">
        <ele>219.317993</ele>
        <time>2011-06-03T14:15:43Z</time>
      </trkpt>
      <trkpt lat="47.11508" lon="5.52247">
        <ele>218.356567</ele>
        <time>2011-06-03T14:15:48Z</time>
      </trkpt>
      <trkpt lat="47.11535" lon="5.52145">
        <ele>217.875977</ele>
        <time>2011-06-03T14:16:00Z</time>
      </trkpt>
      <trkpt lat="47.11539" lon="5.52101">
        <ele>217.875977</ele>
        <time>2011-06-03T14:16:05Z</time>
      </trkpt>
      <trkpt lat="47.11564" lon="5.51886">
        <ele>219.798584</ele>
        <time>2011-06-03T14:16:30Z</time>
      </trkpt>
      <trkpt lat="47.1161" lon="5.51774">
        <ele>221.721191</ele>
        <time>2011-06-03T14:16:46Z</time>
      </trkpt>
      <trkpt lat="47.11714" lon="5.51651">
        <ele>224.124512</ele>
        <time>2011-06-03T14:17:09Z</time>
      </trkpt>
      <trkpt lat="47.11799" lon="5.5153">
        <ele>224.605225</ele>
        <time>2011-06-03T14:17:28Z</time>
      </trkpt>
      <trkpt lat="47.11914" lon="5.51335">
        <ele>225.566528</ele>
        <time>2011-06-03T14:17:56Z</time>
      </trkpt>
      <trkpt lat="47.12" lon="5.51194">
        <ele>226.047119</ele>
        <time>2011-06-03T14:18:16Z</time>
      </trkpt>
      <trkpt lat="47.12028" lon="5.51156">
        <ele>227.489136</ele>
        <time>2011-06-03T14:18:22Z</time>
      </trkpt>
      <trkpt lat="47.12066" lon="5.51132">
        <ele>228.450439</ele>
        <time>2011-06-03T14:18:29Z</time>
      </trkpt>
      <trkpt lat="47.12209" lon="5.51109">
        <ele>230.373047</ele>
        <time>2011-06-03T14:18:53Z</time>
      </trkpt>
      <trkpt lat="47.12225" lon="5.51091">
        <ele>232.295776</ele>
        <time>2011-06-03T14:18:57Z</time>
      </trkpt>
      <trkpt lat="47.12229" lon="5.51086">
        <ele>232.295776</ele>
        <time>2011-06-03T14:18:58Z</time>
      </trkpt>
      <trkpt lat="47.12303" lon="5.50945">
        <ele>231.814941</ele>
        <time>2011-06-03T14:19:19Z</time>
      </trkpt>
      <trkpt lat="47.12416" lon="5.50739">
        <ele>231.814941</ele>
        <time>2011-06-03T14:19:48Z</time>
      </trkpt>
      <trkpt lat="47.12465" lon="5.5065">
        <ele>235.179688</ele>
        <time>2011-06-03T14:20:03Z</time>
      </trkpt>
      <trkpt lat="47.12497" lon="5.50592">
        <ele>235.660278</ele>
        <time>2011-06-03T14:20:13Z</time>
      </trkpt>
      <trkpt lat="47.1252" lon="5.50593">
        <ele>236.140991</ele>
        <time>2011-06-03T14:20:19Z</time>
      </trkpt>
      <trkpt lat="47.12583" lon="5.50737">
        <ele>236.140991</ele>
        <time>2011-06-03T14:20:40Z</time>
      </trkpt>
      <trkpt lat="47.12653" lon="5.5089">
        <ele>233.25708</ele>
        <time>2011-06-03T14:20:57Z</time>
      </trkpt>
      <trkpt lat="47.12752" lon="5.51107">
        <ele>233.737671</ele>
        <time>2011-06-03T14:21:22Z</time>
      </trkpt>
      <trkpt lat="47.12837" lon="5.51296">
        <ele>236.140991</ele>
        <time>2011-06-03T14:21:47Z</time>
      </trkpt>
      <trkpt lat="47.1289" lon="5.51414">
        <ele>239.986206</ele>
        <time>2011-06-03T14:22:03Z</time>
      </trkpt>
      <trkpt lat="47.12893" lon="5.51421">
        <ele>239.986206</ele>
        <time>2011-06-03T14:22:04Z</time>
      </trkpt>
      <trkpt lat="47.12959" lon="5.51536">
        <ele>240.947632</ele>
        <time>2011-06-03T14:22:22Z</time>
      </trkpt>
      <trkpt lat="47.13001" lon="5.51648">
        <ele>240.947632</ele>
        <time>2011-06-03T14:22:37Z</time>
      </trkpt>
      <trkpt lat="47.13041" lon="5.51803">
        <ele>237.582886</ele>
        <time>2011-06-03T14:22:54Z</time>
      </trkpt>
      <trkpt lat="47.13102" lon="5.52038">
        <ele>235.179688</ele>
        <time>2011-06-03T14:23:17Z</time>
      </trkpt>
      <trkpt lat="47.13179" lon="5.52306">
        <ele>234.699097</ele>
        <time>2011-06-03T14:23:47Z</time>
      </trkpt>
      <trkpt lat="47.13272" lon="5.52589">
        <ele>232.776489</ele>
        <time>2011-06-03T14:24:17Z</time>
      </trkpt>
      <trkpt lat="47.13357" lon="5.52845">
        <ele>231.334351</ele>
        <time>2011-06-03T14:24:45Z</time>
      </trkpt>
      <trkpt lat="47.13431" lon="5.5305">
        <ele>232.776489</ele>
        <time>2011-06-03T14:25:10Z</time>
      </trkpt>
      <trkpt lat="47.13502" lon="5.53257">
        <ele>233.737671</ele>
        <time>2011-06-03T14:25:36Z</time>
      </trkpt>
      <trkpt lat="47.13561" lon="5.53439">
        <ele>230.85376</ele>
        <time>2011-06-03T14:25:58Z</time>
      </trkpt>
      <trkpt lat="47.13579" lon="5.53625">
        <ele>228.931152</ele>
        <time>2011-06-03T14:26:17Z</time>
      </trkpt>
      <trkpt lat="47.13599" lon="5.53848">
        <ele>229.892334</ele>
        <time>2011-06-03T14:26:41Z</time>
      </trkpt>
      <trkpt lat="47.13615" lon="5.53902">
        <ele>230.85376</ele>
        <time>2011-06-03T14:26:48Z</time>
      </trkpt>
      <trkpt lat="47.1363" lon="5.53923">
        <ele>230.85376</ele>
        <time>2011-06-03T14:26:52Z</time>
      </trkpt>
      <trkpt lat="47.13648" lon="5.5394">
        <ele>231.334351</ele>
        <time>2011-06-03T14:26:56Z</time>
      </trkpt>
      <trkpt lat="47.13752" lon="5.53964">
        <ele>228.931152</ele>
        <time>2011-06-03T14:27:13Z</time>
      </trkpt>
      <trkpt lat="47.13759" lon="5.53967">
        <ele>228.450439</ele>
        <time>2011-06-03T14:27:14Z</time>
      </trkpt>
      <trkpt lat="47.138" lon="5.54012">
        <ele>225.566528</ele>
        <time>2011-06-03T14:27:20Z</time>
      </trkpt>
      <trkpt lat="47.13885" lon="5.54148">
        <ele>223.163208</ele>
        <time>2011-06-03T14:27:36Z</time>
      </trkpt>
      <trkpt lat="47.13988" lon="5.5422">
        <ele>221.240601</ele>
        <time>2011-06-03T14:27:51Z</time>
      </trkpt>
      <trkpt lat="47.14084" lon="5.54309">
        <ele>219.798584</ele>
        <time>2011-06-03T14:28:07Z</time>
      </trkpt>
      <trkpt lat="47.14135" lon="5.54422">
        <ele>216.914673</ele>
        <time>2011-06-03T14:28:19Z</time>
      </trkpt>
      <trkpt lat="47.14232" lon="5.54632">
        <ele>214.51123</ele>
        <time>2011-06-03T14:28:41Z</time>
      </trkpt>
      <trkpt lat="47.14301" lon="5.54785">
        <ele>215.953247</ele>
        <time>2011-06-03T14:29:00Z</time>
      </trkpt>
      <trkpt lat="47.1433" lon="5.5484">
        <ele>216.43396</ele>
        <time>2011-06-03T14:29:08Z</time>
      </trkpt>
      <trkpt lat="47.14405" lon="5.54902">
        <ele>215.953247</ele>
        <time>2011-06-03T14:29:22Z</time>
      </trkpt>
      <trkpt lat="47.14498" lon="5.54968">
        <ele>213.069336</ele>
        <time>2011-06-03T14:29:40Z</time>
      </trkpt>
      <trkpt lat="47.14502" lon="5.54972">
        <ele>213.069336</ele>
        <time>2011-06-03T14:29:41Z</time>
      </trkpt>
      <trkpt lat="47.14512" lon="5.5499">
        <ele>212.108032</ele>
        <time>2011-06-03T14:29:45Z</time>
      </trkpt>
      <trkpt lat="47.14544" lon="5.55082">
        <ele>209.704834</ele>
        <time>2011-06-03T14:29:58Z</time>
      </trkpt>
      <trkpt lat="47.1461" lon="5.55185">
        <ele>207.301392</ele>
        <time>2011-06-03T14:30:12Z</time>
      </trkpt>
      <trkpt lat="47.14647" lon="5.55228">
        <ele>206.820679</ele>
        <time>2011-06-03T14:30:20Z</time>
      </trkpt>
      <trkpt lat="47.14704" lon="5.55253">
        <ele>205.859497</ele>
        <time>2011-06-03T14:30:34Z</time>
      </trkpt>
      <trkpt lat="47.14747" lon="5.55261">
        <ele>207.301392</ele>
        <time>2011-06-03T14:30:44Z</time>
      </trkpt>
      <trkpt lat="47.14791" lon="5.55243">
        <ele>210.666016</ele>
        <time>2011-06-03T14:30:56Z</time>
      </trkpt>
      <trkpt lat="47.14829" lon="5.5519">
        <ele>213.069336</ele>
        <time>2011-06-03T14:31:09Z</time>
      </trkpt>
      <trkpt lat="47.14835" lon="5.55181">
        <ele>213.550049</ele>
        <time>2011-06-03T14:31:11Z</time>
      </trkpt>
      <trkpt lat="47.14859" lon="5.55166">
        <ele>214.51123</ele>
        <time>2011-06-03T14:31:17Z</time>
      </trkpt>
      <trkpt lat="47.14878" lon="5.55164">
        <ele>214.991943</ele>
        <time>2011-06-03T14:31:21Z</time>
      </trkpt>
      <trkpt lat="47.14907" lon="5.55134">
        <ele>214.991943</ele>
        <time>2011-06-03T14:31:29Z</time>
      </trkpt>
      <trkpt lat="47.14936" lon="5.55059">
        <ele>215.472656</ele>
        <time>2011-06-03T14:31:41Z</time>
      </trkpt>
      <trkpt lat="47.14955" lon="5.55041">
        <ele>215.472656</ele>
        <time>2011-06-03T14:31:47Z</time>
      </trkpt>
      <trkpt lat="47.15002" lon="5.55066">
        <ele>217.875977</ele>
        <time>2011-06-03T14:32:01Z</time>
      </trkpt>
      <trkpt lat="47.1506" lon="5.55106">
        <ele>218.83728</ele>
        <time>2011-06-03T14:32:16Z</time>
      </trkpt>
      <trkpt lat="47.1517" lon="5.55178">
        <ele>220.279175</ele>
        <time>2011-06-03T14:32:40Z</time>
      </trkpt>
      <trkpt lat="47.15285" lon="5.55266">
        <ele>223.163208</ele>
        <time>2011-06-03T14:33:04Z</time>
      </trkpt>
      <trkpt lat="47.15396" lon="5.5535">
        <ele>224.605225</ele>
        <time>2011-06-03T14:33:27Z</time>
      </trkpt>
      <trkpt lat="47.1547" lon="5.55423">
        <ele>221.240601</ele>
        <time>2011-06-03T14:33:39Z</time>
      </trkpt>
      <trkpt lat="47.15569" lon="5.55537">
        <ele>222.682495</ele>
        <time>2011-06-03T14:33:58Z</time>
      </trkpt>
      <trkpt lat="47.15674" lon="5.55614">
        <ele>220.759888</ele>
        <time>2011-06-03T14:34:16Z</time>
      </trkpt>
      <trkpt lat="47.15742" lon="5.55668">
        <ele>217.875977</ele>
        <time>2011-06-03T14:34:25Z</time>
      </trkpt>
      <trkpt lat="47.15804" lon="5.5573">
        <ele>214.51123</ele>
        <time>2011-06-03T14:34:33Z</time>
      </trkpt>
      <trkpt lat="47.15902" lon="5.55813">
        <ele>213.069336</ele>
        <time>2011-06-03T14:34:47Z</time>
      </trkpt>
      <trkpt lat="47.1607" lon="5.55875">
        <ele>212.588623</ele>
        <time>2011-06-03T14:35:12Z</time>
      </trkpt>
      <trkpt lat="47.16212" lon="5.55893">
        <ele>213.069336</ele>
        <time>2011-06-03T14:35:34Z</time>
      </trkpt>
      <trkpt lat="47.16223" lon="5.55901">
        <ele>213.069336</ele>
        <time>2011-06-03T14:35:36Z</time>
      </trkpt>
      <trkpt lat="47.16289" lon="5.55992">
        <ele>214.991943</ele>
        <time>2011-06-03T14:35:52Z</time>
      </trkpt>
      <trkpt lat="47.16393" lon="5.56127">
        <ele>214.991943</ele>
        <time>2011-06-03T14:36:16Z</time>
      </trkpt>
      <trkpt lat="47.16455" lon="5.56202">
        <ele>216.914673</ele>
        <time>2011-06-03T14:36:31Z</time>
      </trkpt>
      <trkpt lat="47.16474" lon="5.56225">
        <ele>217.395386</ele>
        <time>2011-06-03T14:36:36Z</time>
      </trkpt>
      <trkpt lat="47.16496" lon="5.56268">
        <ele>215.953247</ele>
        <time>2011-06-03T14:36:43Z</time>
      </trkpt>
      <trkpt lat="47.16499" lon="5.56315">
        <ele>215.472656</ele>
        <time>2011-06-03T14:36:49Z</time>
      </trkpt>
      <trkpt lat="47.16492" lon="5.56349">
        <ele>214.51123</ele>
        <time>2011-06-03T14:36:54Z</time>
      </trkpt>
      <trkpt lat="47.16463" lon="5.56412">
        <ele>214.991943</ele>
        <time>2011-06-03T14:37:06Z</time>
      </trkpt>
      <trkpt lat="47.16453" lon="5.56428">
        <ele>215.472656</ele>
        <time>2011-06-03T14:37:10Z</time>
      </trkpt>
      <trkpt lat="47.16455" lon="5.56451">
        <ele>216.914673</ele>
        <time>2011-06-03T14:37:15Z</time>
      </trkpt>
      <trkpt lat="47.16483" lon="5.56485">
        <ele>218.356567</ele>
        <time>2011-06-03T14:37:29Z</time>
      </trkpt>
      <trkpt lat="47.16533" lon="5.56503">
        <ele>220.279175</ele>
        <time>2011-06-03T14:37:44Z</time>
      </trkpt>
      <trkpt lat="47.16577" lon="5.56525">
        <ele>221.721191</ele>
        <time>2011-06-03T14:38:00Z</time>
      </trkpt>
      <trkpt lat="47.16639" lon="5.56527">
        <ele>223.643799</ele>
        <time>2011-06-03T14:38:18Z</time>
      </trkpt>
      <trkpt lat="47.16658" lon="5.56489">
        <ele>223.163208</ele>
        <time>2011-06-03T14:38:28Z</time>
      </trkpt>
      <trkpt lat="47.16659" lon="5.56483">
        <ele>223.163208</ele>
        <time>2011-06-03T14:38:29Z</time>
      </trkpt>
      <trkpt lat="47.16718" lon="5.5636">
        <ele>222.201782</ele>
        <time>2011-06-03T14:38:51Z</time>
      </trkpt>
      <trkpt lat="47.16724" lon="5.56348">
        <ele>222.201782</ele>
        <time>2011-06-03T14:38:53Z</time>
      </trkpt>
      <trkpt lat="47.16743" lon="5.56321">
        <ele>222.682495</ele>
        <time>2011-06-03T14:38:58Z</time>
      </trkpt>
      <trkpt lat="47.16808" lon="5.56274">
        <ele>225.085938</ele>
        <time>2011-06-03T14:39:13Z</time>
      </trkpt>
      <trkpt lat="47.16904" lon="5.5624">
        <ele>228.450439</ele>
        <time>2011-06-03T14:39:34Z</time>
      </trkpt>
      <trkpt lat="47.16976" lon="5.56192">
        <ele>231.334351</ele>
        <time>2011-06-03T14:39:52Z</time>
      </trkpt>
      <trkpt lat="47.17049" lon="5.56132">
        <ele>233.25708</ele>
        <time>2011-06-03T14:40:10Z</time>
      </trkpt>
      <trkpt lat="47.17056" lon="5.56124">
        <ele>233.25708</ele>
        <time>2011-06-03T14:40:12Z</time>
      </trkpt>
      <trkpt lat="47.17064" lon="5.56116">
        <ele>233.25708</ele>
        <time>2011-06-03T14:40:14Z</time>
      </trkpt>
      <trkpt lat="47.17075" lon="5.56102">
        <ele>233.737671</ele>
        <time>2011-06-03T14:40:17Z</time>
      </trkpt>
      <trkpt lat="47.17123" lon="5.56016">
        <ele>237.102295</ele>
        <time>2011-06-03T14:40:35Z</time>
      </trkpt>
      <trkpt lat="47.17126" lon="5.56011">
        <ele>237.102295</ele>
        <time>2011-06-03T14:40:36Z</time>
      </trkpt>
      <trkpt lat="47.17169" lon="5.56002">
        <ele>239.505493</ele>
        <time>2011-06-03T14:40:48Z</time>
      </trkpt>
      <trkpt lat="47.17206" lon="5.56046">
        <ele>242.389648</ele>
        <time>2011-06-03T14:41:01Z</time>
      </trkpt>
      <trkpt lat="47.17244" lon="5.561">
        <ele>245.273438</ele>
        <time>2011-06-03T14:41:15Z</time>
      </trkpt>
      <trkpt lat="47.17263" lon="5.56111">
        <ele>246.234863</ele>
        <time>2011-06-03T14:41:21Z</time>
      </trkpt>
      <trkpt lat="47.17282" lon="5.56096">
        <ele>247.676758</ele>
        <time>2011-06-03T14:41:27Z</time>
      </trkpt>
      <trkpt lat="47.17292" lon="5.56068">
        <ele>249.118774</ele>
        <time>2011-06-03T14:41:34Z</time>
      </trkpt>
      <trkpt lat="47.17276" lon="5.55991">
        <ele>252.002808</ele>
        <time>2011-06-03T14:41:49Z</time>
      </trkpt>
      <trkpt lat="47.1726" lon="5.5596">
        <ele>252.963989</ele>
        <time>2011-06-03T14:41:56Z</time>
      </trkpt>
      <trkpt lat="47.17223" lon="5.55885">
        <ele>256.328735</ele>
        <time>2011-06-03T14:42:12Z</time>
      </trkpt>
      <trkpt lat="47.17209" lon="5.55801">
        <ele>259.212646</ele>
        <time>2011-06-03T14:42:26Z</time>
      </trkpt>
      <trkpt lat="47.17225" lon="5.55732">
        <ele>262.096558</ele>
        <time>2011-06-03T14:42:39Z</time>
      </trkpt>
      <trkpt lat="47.17251" lon="5.55658">
        <ele>264.980591</ele>
        <time>2011-06-03T14:42:54Z</time>
      </trkpt>
      <trkpt lat="47.17287" lon="5.55611">
        <ele>267.864502</ele>
        <time>2011-06-03T14:43:07Z</time>
      </trkpt>
      <trkpt lat="47.17328" lon="5.55574">
        <ele>271.229126</ele>
        <time>2011-06-03T14:43:21Z</time>
      </trkpt>
      <trkpt lat="47.17336" lon="5.55567">
        <ele>271.709717</ele>
        <time>2011-06-03T14:43:24Z</time>
      </trkpt>
      <trkpt lat="47.17377" lon="5.55551">
        <ele>274.113037</ele>
        <time>2011-06-03T14:43:37Z</time>
      </trkpt>
      <trkpt lat="47.17419" lon="5.55535">
        <ele>276.99707</ele>
        <time>2011-06-03T14:43:50Z</time>
      </trkpt>
      <trkpt lat="47.17469" lon="5.55522">
        <ele>279.880859</ele>
        <time>2011-06-03T14:44:05Z</time>
      </trkpt>
      <trkpt lat="47.1753" lon="5.5554">
        <ele>283.245605</ele>
        <time>2011-06-03T14:44:20Z</time>
      </trkpt>
      <trkpt lat="47.17582" lon="5.55552">
        <ele>285.648804</ele>
        <time>2011-06-03T14:44:34Z</time>
      </trkpt>
      <trkpt lat="47.17599" lon="5.55513">
        <ele>288.052246</ele>
        <time>2011-06-03T14:44:44Z</time>
      </trkpt>
      <trkpt lat="47.17609" lon="5.55441">
        <ele>291.416748</ele>
        <time>2011-06-03T14:44:59Z</time>
      </trkpt>
      <trkpt lat="47.17609" lon="5.55379">
        <ele>293.820068</ele>
        <time>2011-06-03T14:45:11Z</time>
      </trkpt>
      <trkpt lat="47.1761" lon="5.55321">
        <ele>295.742676</ele>
        <time>2011-06-03T14:45:22Z</time>
      </trkpt>
      <trkpt lat="47.1761" lon="5.5531">
        <ele>295.742676</ele>
        <time>2011-06-03T14:45:24Z</time>
      </trkpt>
      <trkpt lat="47.17615" lon="5.55303">
        <ele>296.223511</ele>
        <time>2011-06-03T14:45:26Z</time>
      </trkpt>
      <trkpt lat="47.17609" lon="5.55238">
        <ele>298.146118</ele>
        <time>2011-06-03T14:45:37Z</time>
      </trkpt>
      <trkpt lat="47.17596" lon="5.55144">
        <ele>301.029907</ele>
        <time>2011-06-03T14:45:53Z</time>
      </trkpt>
      <trkpt lat="47.17592" lon="5.5512">
        <ele>301.991333</ele>
        <time>2011-06-03T14:45:57Z</time>
      </trkpt>
      <trkpt lat="47.1758" lon="5.55052">
        <ele>304.875244</ele>
        <time>2011-06-03T14:46:10Z</time>
      </trkpt>
      <trkpt lat="47.17566" lon="5.54964">
        <ele>307.759277</ele>
        <time>2011-06-03T14:46:27Z</time>
      </trkpt>
      <trkpt lat="47.17564" lon="5.54874">
        <ele>310.643066</ele>
        <time>2011-06-03T14:46:43Z</time>
      </trkpt>
      <trkpt lat="47.17569" lon="5.5482">
        <ele>312.565796</ele>
        <time>2011-06-03T14:46:53Z</time>
      </trkpt>
      <trkpt lat="47.17582" lon="5.54734">
        <ele>315.449829</ele>
        <time>2011-06-03T14:47:09Z</time>
      </trkpt>
      <trkpt lat="47.17596" lon="5.54671">
        <ele>317.853027</ele>
        <time>2011-06-03T14:47:21Z</time>
      </trkpt>
      <trkpt lat="47.17622" lon="5.54601">
        <ele>320.737061</ele>
        <time>2011-06-03T14:47:36Z</time>
      </trkpt>
      <trkpt lat="47.17632" lon="5.54577">
        <ele>321.698364</ele>
        <time>2011-06-03T14:47:41Z</time>
      </trkpt>
      <trkpt lat="47.17638" lon="5.54567">
        <ele>322.178955</ele>
        <time>2011-06-03T14:47:43Z</time>
      </trkpt>
      <trkpt lat="47.17657" lon="5.54519">
        <ele>323.620972</ele>
        <time>2011-06-03T14:47:53Z</time>
      </trkpt>
      <trkpt lat="47.17661" lon="5.54508">
        <ele>323.620972</ele>
        <time>2011-06-03T14:47:55Z</time>
      </trkpt>
      <trkpt lat="47.17696" lon="5.54437">
        <ele>326.504883</ele>
        <time>2011-06-03T14:48:10Z</time>
      </trkpt>
      <trkpt lat="47.17701" lon="5.54426">
        <ele>326.504883</ele>
        <time>2011-06-03T14:48:12Z</time>
      </trkpt>
      <trkpt lat="47.17708" lon="5.54405">
        <ele>326.985596</ele>
        <time>2011-06-03T14:48:16Z</time>
      </trkpt>
      <trkpt lat="47.1773" lon="5.54346">
        <ele>328.427612</ele>
        <time>2011-06-03T14:48:27Z</time>
      </trkpt>
      <trkpt lat="47.17746" lon="5.54308">
        <ele>329.388916</ele>
        <time>2011-06-03T14:48:34Z</time>
      </trkpt>
      <trkpt lat="47.17758" lon="5.54282">
        <ele>329.869507</ele>
        <time>2011-06-03T14:48:39Z</time>
      </trkpt>
      <trkpt lat="47.17773" lon="5.54244">
        <ele>331.311523</ele>
        <time>2011-06-03T14:48:46Z</time>
      </trkpt>
      <trkpt lat="47.17779" lon="5.54228">
        <ele>331.792114</ele>
        <time>2011-06-03T14:48:49Z</time>
      </trkpt>
      <trkpt lat="47.17797" lon="5.54201">
        <ele>332.75354</ele>
        <time>2011-06-03T14:48:55Z</time>
      </trkpt>
      <trkpt lat="47.17814" lon="5.54173">
        <ele>333.234131</ele>
        <time>2011-06-03T14:49:01Z</time>
      </trkpt>
      <trkpt lat="47.1782" lon="5.54164">
        <ele>333.714722</ele>
        <time>2011-06-03T14:49:03Z</time>
      </trkpt>
      <trkpt lat="47.17825" lon="5.54127">
        <ele>335.156738</ele>
        <time>2011-06-03T14:49:09Z</time>
      </trkpt>
      <trkpt lat="47.17835" lon="5.54038">
        <ele>338.521484</ele>
        <time>2011-06-03T14:49:23Z</time>
      </trkpt>
      <trkpt lat="47.17842" lon="5.53938">
        <ele>341.885986</ele>
        <time>2011-06-03T14:49:39Z</time>
      </trkpt>
      <trkpt lat="47.17855" lon="5.53866">
        <ele>344.289429</ele>
        <time>2011-06-03T14:49:52Z</time>
      </trkpt>
      <trkpt lat="47.17886" lon="5.53855">
        <ele>347.173218</ele>
        <time>2011-06-03T14:50:02Z</time>
      </trkpt>
      <trkpt lat="47.17904" lon="5.53867">
        <ele>348.615234</ele>
        <time>2011-06-03T14:50:11Z</time>
      </trkpt>
      <trkpt lat="47.17915" lon="5.53876">
        <ele>349.576538</ele>
        <time>2011-06-03T14:50:14Z</time>
      </trkpt>
      <trkpt lat="47.17959" lon="5.53906">
        <ele>351.018433</ele>
        <time>2011-06-03T14:50:23Z</time>
      </trkpt>
      <trkpt lat="47.17995" lon="5.53936">
        <ele>352.941162</ele>
        <time>2011-06-03T14:50:34Z</time>
      </trkpt>
      <trkpt lat="47.18022" lon="5.53964">
        <ele>354.86377</ele>
        <time>2011-06-03T14:50:43Z</time>
      </trkpt>
      <trkpt lat="47.18053" lon="5.53983">
        <ele>356.305786</ele>
        <time>2011-06-03T14:50:57Z</time>
      </trkpt>
      <trkpt lat="47.18054" lon="5.53981">
        <ele>356.305786</ele>
        <time>2011-06-03T14:51:12Z</time>
      </trkpt>
      <trkpt lat="47.18062" lon="5.53973">
        <ele>356.305786</ele>
        <time>2011-06-03T14:51:27Z</time>
      </trkpt>
      <trkpt lat="47.18063" lon="5.53974">
        <ele>357.26709</ele>
        <time>2011-06-03T14:53:27Z</time>
      </trkpt>
      <trkpt lat="47.18065" lon="5.53976">
        <ele>357.26709</ele>
        <time>2011-06-03T14:53:38Z</time>
      </trkpt>
      <trkpt lat="47.18066" lon="5.53976">
        <ele>358.228394</ele>
        <time>2011-06-03T14:55:46Z</time>
      </trkpt>
      <trkpt lat="47.18093" lon="5.53956">
        <ele>358.228394</ele>
        <time>2011-06-03T14:55:57Z</time>
      </trkpt>
      <trkpt lat="47.181" lon="5.53949">
        <ele>357.747803</ele>
        <time>2011-06-03T14:55:59Z</time>
      </trkpt>
      <trkpt lat="47.18113" lon="5.53939">
        <ele>357.26709</ele>
        <time>2011-06-03T14:56:02Z</time>
      </trkpt>
      <trkpt lat="47.18175" lon="5.53905">
        <ele>355.825195</ele>
        <time>2011-06-03T14:56:14Z</time>
      </trkpt>
      <trkpt lat="47.18203" lon="5.53896">
        <ele>355.825195</ele>
        <time>2011-06-03T14:56:19Z</time>
      </trkpt>
      <trkpt lat="47.18305" lon="5.5388">
        <ele>352.941162</ele>
        <time>2011-06-03T14:56:34Z</time>
      </trkpt>
      <trkpt lat="47.18384" lon="5.53869">
        <ele>349.576538</ele>
        <time>2011-06-03T14:56:43Z</time>
      </trkpt>
      <trkpt lat="47.18394" lon="5.53868">
        <ele>349.576538</ele>
        <time>2011-06-03T14:56:44Z</time>
      </trkpt>
      <trkpt lat="47.18485" lon="5.53854">
        <ele>346.212036</ele>
        <time>2011-06-03T14:56:54Z</time>
      </trkpt>
      <trkpt lat="47.18606" lon="5.53834">
        <ele>343.808594</ele>
        <time>2011-06-03T14:57:08Z</time>
      </trkpt>
      <trkpt lat="47.18727" lon="5.53809">
        <ele>345.25061</ele>
        <time>2011-06-03T14:57:27Z</time>
      </trkpt>
      <trkpt lat="47.18769" lon="5.53796">
        <ele>346.212036</ele>
        <time>2011-06-03T14:57:35Z</time>
      </trkpt>
      <trkpt lat="47.18794" lon="5.53786">
        <ele>345.731323</ele>
        <time>2011-06-03T14:57:40Z</time>
      </trkpt>
      <trkpt lat="47.18804" lon="5.53784">
        <ele>345.731323</ele>
        <time>2011-06-03T14:57:42Z</time>
      </trkpt>
      <trkpt lat="47.18823" lon="5.53783">
        <ele>345.25061</ele>
        <time>2011-06-03T14:57:45Z</time>
      </trkpt>
      <trkpt lat="47.18863" lon="5.53771">
        <ele>343.808594</ele>
        <time>2011-06-03T14:57:52Z</time>
      </trkpt>
      <trkpt lat="47.18899" lon="5.53763">
        <ele>343.327881</ele>
        <time>2011-06-03T14:57:57Z</time>
      </trkpt>
      <trkpt lat="47.18915" lon="5.53762">
        <ele>342.84729</ele>
        <time>2011-06-03T14:57:59Z</time>
      </trkpt>
      <trkpt lat="47.18985" lon="5.53779">
        <ele>340.924683</ele>
        <time>2011-06-03T14:58:08Z</time>
      </trkpt>
      <trkpt lat="47.19077" lon="5.53827">
        <ele>337.560059</ele>
        <time>2011-06-03T14:58:21Z</time>
      </trkpt>
      <trkpt lat="47.19098" lon="5.53837">
        <ele>337.079468</ele>
        <time>2011-06-03T14:58:24Z</time>
      </trkpt>
      <trkpt lat="47.19123" lon="5.5384">
        <ele>335.637329</ele>
        <time>2011-06-03T14:58:27Z</time>
      </trkpt>
      <trkpt lat="47.1915" lon="5.53833">
        <ele>334.676147</ele>
        <time>2011-06-03T14:58:30Z</time>
      </trkpt>
      <trkpt lat="47.192" lon="5.53759">
        <ele>330.35022</ele>
        <time>2011-06-03T14:58:38Z</time>
      </trkpt>
      <trkpt lat="47.19197" lon="5.53676">
        <ele>328.427612</ele>
        <time>2011-06-03T14:58:44Z</time>
      </trkpt>
      <trkpt lat="47.19175" lon="5.5359">
        <ele>324.582275</ele>
        <time>2011-06-03T14:58:50Z</time>
      </trkpt>
      <trkpt lat="47.19172" lon="5.53574">
        <ele>324.101563</ele>
        <time>2011-06-03T14:58:51Z</time>
      </trkpt>
      <trkpt lat="47.19168" lon="5.5344">
        <ele>319.775635</ele>
        <time>2011-06-03T14:58:59Z</time>
      </trkpt>
      <trkpt lat="47.19169" lon="5.53394">
        <ele>317.853027</ele>
        <time>2011-06-03T14:59:02Z</time>
      </trkpt>
      <trkpt lat="47.192" lon="5.53338">
        <ele>314.488403</ele>
        <time>2011-06-03T14:59:08Z</time>
      </trkpt>
      <trkpt lat="47.19228" lon="5.53339">
        <ele>313.046509</ele>
        <time>2011-06-03T14:59:11Z</time>
      </trkpt>
      <trkpt lat="47.19303" lon="5.53369">
        <ele>309.681885</ele>
        <time>2011-06-03T14:59:19Z</time>
      </trkpt>
      <trkpt lat="47.19384" lon="5.53396">
        <ele>305.83667</ele>
        <time>2011-06-03T14:59:27Z</time>
      </trkpt>
      <trkpt lat="47.19393" lon="5.53399">
        <ele>306.317261</ele>
        <time>2011-06-03T14:59:28Z</time>
      </trkpt>
      <trkpt lat="47.19451" lon="5.53427">
        <ele>304.875244</ele>
        <time>2011-06-03T14:59:35Z</time>
      </trkpt>
      <trkpt lat="47.19527" lon="5.53456">
        <ele>301.51062</ele>
        <time>2011-06-03T14:59:44Z</time>
      </trkpt>
      <trkpt lat="47.19536" lon="5.53459">
        <ele>301.51062</ele>
        <time>2011-06-03T14:59:45Z</time>
      </trkpt>
      <trkpt lat="47.19601" lon="5.53471">
        <ele>298.626709</ele>
        <time>2011-06-03T14:59:52Z</time>
      </trkpt>
      <trkpt lat="47.1963" lon="5.53472">
        <ele>297.665405</ele>
        <time>2011-06-03T14:59:55Z</time>
      </trkpt>
      <trkpt lat="47.19658" lon="5.53459">
        <ele>294.300781</ele>
        <time>2011-06-03T14:59:58Z</time>
      </trkpt>
      <trkpt lat="47.19666" lon="5.53451">
        <ele>293.339355</ele>
        <time>2011-06-03T14:59:59Z</time>
      </trkpt>
      <trkpt lat="47.197" lon="5.53414">
        <ele>291.897461</ele>
        <time>2011-06-03T15:00:03Z</time>
      </trkpt>
      <trkpt lat="47.19725" lon="5.53384">
        <ele>289.974854</ele>
        <time>2011-06-03T15:00:06Z</time>
      </trkpt>
      <trkpt lat="47.19747" lon="5.53327">
        <ele>284.687622</ele>
        <time>2011-06-03T15:00:10Z</time>
      </trkpt>
      <trkpt lat="47.19761" lon="5.53258">
        <ele>280.842407</ele>
        <time>2011-06-03T15:00:14Z</time>
      </trkpt>
      <trkpt lat="47.19763" lon="5.5324">
        <ele>279.880859</ele>
        <time>2011-06-03T15:00:15Z</time>
      </trkpt>
      <trkpt lat="47.19763" lon="5.53183">
        <ele>276.035645</ele>
        <time>2011-06-03T15:00:18Z</time>
      </trkpt>
      <trkpt lat="47.1976" lon="5.53122">
        <ele>272.19043</ele>
        <time>2011-06-03T15:00:21Z</time>
      </trkpt>
      <trkpt lat="47.19764" lon="5.53082">
        <ele>270.748413</ele>
        <time>2011-06-03T15:00:23Z</time>
      </trkpt>
      <trkpt lat="47.19776" lon="5.53025">
        <ele>267.864502</ele>
        <time>2011-06-03T15:00:26Z</time>
      </trkpt>
      <trkpt lat="47.19778" lon="5.52969">
        <ele>265.941895</ele>
        <time>2011-06-03T15:00:29Z</time>
      </trkpt>
      <trkpt lat="47.19777" lon="5.52951">
        <ele>265.941895</ele>
        <time>2011-06-03T15:00:30Z</time>
      </trkpt>
      <trkpt lat="47.19772" lon="5.52916">
        <ele>265.941895</ele>
        <time>2011-06-03T15:00:32Z</time>
      </trkpt>
      <trkpt lat="47.19754" lon="5.52855">
        <ele>263.538574</ele>
        <time>2011-06-03T15:00:36Z</time>
      </trkpt>
      <trkpt lat="47.19723" lon="5.52756">
        <ele>261.615967</ele>
        <time>2011-06-03T15:00:44Z</time>
      </trkpt>
      <trkpt lat="47.19723" lon="5.52705">
        <ele>259.212646</ele>
        <time>2011-06-03T15:00:48Z</time>
      </trkpt>
      <trkpt lat="47.19727" lon="5.52692">
        <ele>258.731934</ele>
        <time>2011-06-03T15:00:49Z</time>
      </trkpt>
      <trkpt lat="47.19777" lon="5.5255">
        <ele>254.886597</ele>
        <time>2011-06-03T15:01:02Z</time>
      </trkpt>
      <trkpt lat="47.19779" lon="5.52543">
        <ele>254.406006</ele>
        <time>2011-06-03T15:01:03Z</time>
      </trkpt>
      <trkpt lat="47.19773" lon="5.52521">
        <ele>252.963989</ele>
        <time>2011-06-03T15:01:08Z</time>
      </trkpt>
      <trkpt lat="47.19747" lon="5.52499">
        <ele>251.522095</ele>
        <time>2011-06-03T15:01:14Z</time>
      </trkpt>
      <trkpt lat="47.1973" lon="5.52486">
        <ele>250.560791</ele>
        <time>2011-06-03T15:01:17Z</time>
      </trkpt>
      <trkpt lat="47.19716" lon="5.52468">
        <ele>249.599487</ele>
        <time>2011-06-03T15:01:20Z</time>
      </trkpt>
      <trkpt lat="47.19684" lon="5.52446">
        <ele>247.676758</ele>
        <time>2011-06-03T15:01:26Z</time>
      </trkpt>
      <trkpt lat="47.19667" lon="5.5246">
        <ele>246.715454</ele>
        <time>2011-06-03T15:01:31Z</time>
      </trkpt>
      <trkpt lat="47.19658" lon="5.52491">
        <ele>244.792847</ele>
        <time>2011-06-03T15:01:35Z</time>
      </trkpt>
      <trkpt lat="47.19631" lon="5.52496">
        <ele>240.947632</ele>
        <time>2011-06-03T15:01:42Z</time>
      </trkpt>
      <trkpt lat="47.19624" lon="5.52472">
        <ele>239.024902</ele>
        <time>2011-06-03T15:01:45Z</time>
      </trkpt>
      <trkpt lat="47.19622" lon="5.52428">
        <ele>236.140991</ele>
        <time>2011-06-03T15:01:50Z</time>
      </trkpt>
      <trkpt lat="47.19627" lon="5.52397">
        <ele>234.218384</ele>
        <time>2011-06-03T15:02:00Z</time>
      </trkpt>
      <trkpt lat="47.19627" lon="5.52394">
        <ele>233.737671</ele>
        <time>2011-06-03T15:02:26Z</time>
      </trkpt>
      <trkpt lat="47.19606" lon="5.52359">
        <ele>234.699097</ele>
        <time>2011-06-03T15:02:40Z</time>
      </trkpt>
      <trkpt lat="47.19575" lon="5.52295">
        <ele>233.25708</ele>
        <time>2011-06-03T15:02:51Z</time>
      </trkpt>
      <trkpt lat="47.1957" lon="5.5226">
        <ele>233.737671</ele>
        <time>2011-06-03T15:02:56Z</time>
      </trkpt>
      <trkpt lat="47.19601" lon="5.52121">
        <ele>230.373047</ele>
        <time>2011-06-03T15:03:11Z</time>
      </trkpt>
      <trkpt lat="47.19606" lon="5.52101">
        <ele>229.411743</ele>
        <time>2011-06-03T15:03:13Z</time>
      </trkpt>
      <trkpt lat="47.19626" lon="5.5202">
        <ele>228.450439</ele>
        <time>2011-06-03T15:03:21Z</time>
      </trkpt>
      <trkpt lat="47.19678" lon="5.51806">
        <ele>227.008545</ele>
        <time>2011-06-03T15:03:43Z</time>
      </trkpt>
      <trkpt lat="47.19734" lon="5.51607">
        <ele>228.450439</ele>
        <time>2011-06-03T15:04:06Z</time>
      </trkpt>
      <trkpt lat="47.19812" lon="5.51437">
        <ele>230.85376</ele>
        <time>2011-06-03T15:04:30Z</time>
      </trkpt>
      <trkpt lat="47.19829" lon="5.51336">
        <ele>232.295776</ele>
        <time>2011-06-03T15:04:43Z</time>
      </trkpt>
      <trkpt lat="47.19824" lon="5.51154">
        <ele>228.931152</ele>
        <time>2011-06-03T15:05:02Z</time>
      </trkpt>
      <trkpt lat="47.19827" lon="5.51044">
        <ele>225.566528</ele>
        <time>2011-06-03T15:05:10Z</time>
      </trkpt>
      <trkpt lat="47.1983" lon="5.51014">
        <ele>224.605225</ele>
        <time>2011-06-03T15:05:12Z</time>
      </trkpt>
      <trkpt lat="47.1984" lon="5.5092">
        <ele>222.201782</ele>
        <time>2011-06-03T15:05:18Z</time>
      </trkpt>
      <trkpt lat="47.19848" lon="5.50828">
        <ele>219.317993</ele>
        <time>2011-06-03T15:05:24Z</time>
      </trkpt>
      <trkpt lat="47.19861" lon="5.50701">
        <ele>217.395386</ele>
        <time>2011-06-03T15:05:34Z</time>
      </trkpt>
      <trkpt lat="47.19873" lon="5.50666">
        <ele>217.875977</ele>
        <time>2011-06-03T15:05:38Z</time>
      </trkpt>
      <trkpt lat="47.19882" lon="5.50628">
        <ele>218.83728</ele>
        <time>2011-06-03T15:05:43Z</time>
      </trkpt>
      <trkpt lat="47.19885" lon="5.50587">
        <ele>219.798584</ele>
        <time>2011-06-03T15:05:49Z</time>
      </trkpt>
      <trkpt lat="47.19891" lon="5.50558">
        <ele>220.759888</ele>
        <time>2011-06-03T15:05:53Z</time>
      </trkpt>
      <trkpt lat="47.19927" lon="5.50531">
        <ele>223.163208</ele>
        <time>2011-06-03T15:06:02Z</time>
      </trkpt>
      <trkpt lat="47.1994" lon="5.50539">
        <ele>224.605225</ele>
        <time>2011-06-03T15:06:05Z</time>
      </trkpt>
      <trkpt lat="47.19947" lon="5.50547">
        <ele>225.566528</ele>
        <time>2011-06-03T15:06:07Z</time>
      </trkpt>
      <trkpt lat="47.19973" lon="5.50574">
        <ele>226.527832</ele>
        <time>2011-06-03T15:06:15Z</time>
      </trkpt>
      <trkpt lat="47.1999" lon="5.50577">
        <ele>227.489136</ele>
        <time>2011-06-03T15:06:19Z</time>
      </trkpt>
      <trkpt lat="47.20045" lon="5.5057">
        <ele>230.85376</ele>
        <time>2011-06-03T15:06:32Z</time>
      </trkpt>
      <trkpt lat="47.20104" lon="5.50525">
        <ele>232.776489</ele>
        <time>2011-06-03T15:06:48Z</time>
      </trkpt>
      <trkpt lat="47.20119" lon="5.50504">
        <ele>234.218384</ele>
        <time>2011-06-03T15:06:53Z</time>
      </trkpt>
      <trkpt lat="47.20149" lon="5.50457">
        <ele>235.660278</ele>
        <time>2011-06-03T15:07:03Z</time>
      </trkpt>
      <trkpt lat="47.20223" lon="5.50413">
        <ele>237.102295</ele>
        <time>2011-06-03T15:07:22Z</time>
      </trkpt>
      <trkpt lat="47.20298" lon="5.50401">
        <ele>238.544312</ele>
        <time>2011-06-03T15:07:38Z</time>
      </trkpt>
      <trkpt lat="47.20336" lon="5.50373">
        <ele>239.986206</ele>
        <time>2011-06-03T15:07:47Z</time>
      </trkpt>
      <trkpt lat="47.20375" lon="5.50334">
        <ele>239.986206</ele>
        <time>2011-06-03T15:07:58Z</time>
      </trkpt>
      <trkpt lat="47.20385" lon="5.5032">
        <ele>239.986206</ele>
        <time>2011-06-03T15:08:01Z</time>
      </trkpt>
      <trkpt lat="47.20404" lon="5.50255">
        <ele>239.024902</ele>
        <time>2011-06-03T15:08:10Z</time>
      </trkpt>
      <trkpt lat="47.20449" lon="5.50175">
        <ele>236.621704</ele>
        <time>2011-06-03T15:08:22Z</time>
      </trkpt>
      <trkpt lat="47.20461" lon="5.50137">
        <ele>236.140991</ele>
        <time>2011-06-03T15:08:27Z</time>
      </trkpt>
      <trkpt lat="47.20464" lon="5.50114">
        <ele>237.582886</ele>
        <time>2011-06-03T15:08:30Z</time>
      </trkpt>
      <trkpt lat="47.20474" lon="5.50079">
        <ele>237.582886</ele>
        <time>2011-06-03T15:08:35Z</time>
      </trkpt>
      <trkpt lat="47.20485" lon="5.50044">
        <ele>237.582886</ele>
        <time>2011-06-03T15:08:42Z</time>
      </trkpt>
      <trkpt lat="47.20491" lon="5.50041">
        <ele>236.621704</ele>
        <time>2011-06-03T15:08:53Z</time>
      </trkpt>
      <trkpt lat="47.20491" lon="5.50041">
        <ele>237.102295</ele>
        <time>2011-06-03T15:09:00Z</time>
      </trkpt>
      <trkpt lat="47.20495" lon="5.50031">
        <ele>237.102295</ele>
        <time>2011-06-03T15:09:04Z</time>
      </trkpt>
      <trkpt lat="47.20488" lon="5.50035">
        <ele>237.582886</ele>
        <time>2011-06-03T15:09:11Z</time>
      </trkpt>
      <trkpt lat="47.20491" lon="5.50041">
        <ele>233.25708</ele>
        <time>2011-06-03T15:09:19Z</time>
      </trkpt>
      <trkpt lat="47.20491" lon="5.50041">
        <ele>237.582886</ele>
        <time>2011-06-03T15:09:20Z</time>
      </trkpt>
      <trkpt lat="47.2049" lon="5.5004">
        <ele>237.102295</ele>
        <time>2011-06-03T15:09:24Z</time>
      </trkpt>
      <trkpt lat="47.2049" lon="5.5004">
        <ele>236.621704</ele>
        <time>2011-06-03T15:09:41Z</time>
      </trkpt>
      <trkpt lat="47.20529" lon="5.50052">
        <ele>235.179688</ele>
        <time>2011-06-03T15:09:55Z</time>
      </trkpt>
      <trkpt lat="47.20575" lon="5.50087">
        <ele>232.295776</ele>
        <time>2011-06-03T15:10:03Z</time>
      </trkpt>
      <trkpt lat="47.20592" lon="5.50095">
        <ele>230.85376</ele>
        <time>2011-06-03T15:10:05Z</time>
      </trkpt>
      <trkpt lat="47.2063" lon="5.50098">
        <ele>227.969727</ele>
        <time>2011-06-03T15:10:09Z</time>
      </trkpt>
      <trkpt lat="47.20651" lon="5.50096">
        <ele>227.008545</ele>
        <time>2011-06-03T15:10:11Z</time>
      </trkpt>
      <trkpt lat="47.20662" lon="5.50094">
        <ele>226.047119</ele>
        <time>2011-06-03T15:10:12Z</time>
      </trkpt>
      <trkpt lat="47.20703" lon="5.50104">
        <ele>224.124512</ele>
        <time>2011-06-03T15:10:16Z</time>
      </trkpt>
      <trkpt lat="47.20729" lon="5.5012">
        <ele>224.124512</ele>
        <time>2011-06-03T15:10:19Z</time>
      </trkpt>
      <trkpt lat="47.20805" lon="5.50232">
        <ele>221.240601</ele>
        <time>2011-06-03T15:10:33Z</time>
      </trkpt>
      <trkpt lat="47.20904" lon="5.50414">
        <ele>220.759888</ele>
        <time>2011-06-03T15:10:55Z</time>
      </trkpt>
      <trkpt lat="47.2095" lon="5.50553">
        <ele>222.201782</ele>
        <time>2011-06-03T15:11:13Z</time>
      </trkpt>
      <trkpt lat="47.20974" lon="5.50666">
        <ele>225.566528</ele>
        <time>2011-06-03T15:11:27Z</time>
      </trkpt>
      <trkpt lat="47.21022" lon="5.50748">
        <ele>224.605225</ele>
        <time>2011-06-03T15:11:40Z</time>
      </trkpt>
      <trkpt lat="47.21074" lon="5.50848">
        <ele>221.721191</ele>
        <time>2011-06-03T15:11:53Z</time>
      </trkpt>
      <trkpt lat="47.21152" lon="5.51017">
        <ele>218.83728</ele>
        <time>2011-06-03T15:12:14Z</time>
      </trkpt>
      <trkpt lat="47.21242" lon="5.51233">
        <ele>215.472656</ele>
        <time>2011-06-03T15:12:38Z</time>
      </trkpt>
      <trkpt lat="47.21247" lon="5.51243">
        <ele>215.472656</ele>
        <time>2011-06-03T15:12:39Z</time>
      </trkpt>
      <trkpt lat="47.21337" lon="5.5138">
        <ele>213.550049</ele>
        <time>2011-06-03T15:12:56Z</time>
      </trkpt>
      <trkpt lat="47.2147" lon="5.515">
        <ele>210.666016</ele>
        <time>2011-06-03T15:13:17Z</time>
      </trkpt>
      <trkpt lat="47.21486" lon="5.51521">
        <ele>210.666016</ele>
        <time>2011-06-03T15:13:20Z</time>
      </trkpt>
      <trkpt lat="47.21515" lon="5.51641">
        <ele>211.146729</ele>
        <time>2011-06-03T15:13:33Z</time>
      </trkpt>
      <trkpt lat="47.21528" lon="5.51824">
        <ele>213.069336</ele>
        <time>2011-06-03T15:13:55Z</time>
      </trkpt>
      <trkpt lat="47.2156" lon="5.51933">
        <ele>215.472656</ele>
        <time>2011-06-03T15:14:10Z</time>
      </trkpt>
      <trkpt lat="47.21633" lon="5.52021">
        <ele>212.588623</ele>
        <time>2011-06-03T15:14:27Z</time>
      </trkpt>
      <trkpt lat="47.2165" lon="5.52034">
        <ele>210.666016</ele>
        <time>2011-06-03T15:14:37Z</time>
      </trkpt>
      <trkpt lat="47.2165" lon="5.52033">
        <ele>210.185425</ele>
        <time>2011-06-03T15:14:44Z</time>
      </trkpt>
      <trkpt lat="47.2165" lon="5.52039">
        <ele>210.666016</ele>
        <time>2011-06-03T15:14:49Z</time>
      </trkpt>
      <trkpt lat="47.21652" lon="5.52037">
        <ele>210.666016</ele>
        <time>2011-06-03T15:14:53Z</time>
      </trkpt>
      <trkpt lat="47.21673" lon="5.5203">
        <ele>209.704834</ele>
        <time>2011-06-03T15:15:02Z</time>
      </trkpt>
      <trkpt lat="47.21734" lon="5.52067">
        <ele>207.301392</ele>
        <time>2011-06-03T15:15:14Z</time>
      </trkpt>
      <trkpt lat="47.21744" lon="5.52071">
        <ele>206.820679</ele>
        <time>2011-06-03T15:15:16Z</time>
      </trkpt>
      <trkpt lat="47.2175" lon="5.52074">
        <ele>206.340088</ele>
        <time>2011-06-03T15:15:17Z</time>
      </trkpt>
      <trkpt lat="47.21769" lon="5.52086">
        <ele>206.340088</ele>
        <time>2011-06-03T15:15:21Z</time>
      </trkpt>
      <trkpt lat="47.21782" lon="5.52108">
        <ele>208.743408</ele>
        <time>2011-06-03T15:15:27Z</time>
      </trkpt>
      <trkpt lat="47.21781" lon="5.5219">
        <ele>211.146729</ele>
        <time>2011-06-03T15:15:41Z</time>
      </trkpt>
      <trkpt lat="47.21755" lon="5.52309">
        <ele>212.588623</ele>
        <time>2011-06-03T15:15:59Z</time>
      </trkpt>
      <trkpt lat="47.21753" lon="5.52315">
        <ele>213.069336</ele>
        <time>2011-06-03T15:16:00Z</time>
      </trkpt>
      <trkpt lat="47.21754" lon="5.52356">
        <ele>215.472656</ele>
        <time>2011-06-03T15:16:07Z</time>
      </trkpt>
      <trkpt lat="47.21788" lon="5.52433">
        <ele>218.83728</ele>
        <time>2011-06-03T15:16:22Z</time>
      </trkpt>
      <trkpt lat="47.21819" lon="5.525">
        <ele>220.279175</ele>
        <time>2011-06-03T15:16:34Z</time>
      </trkpt>
      <trkpt lat="47.21822" lon="5.52528">
        <ele>220.279175</ele>
        <time>2011-06-03T15:16:38Z</time>
      </trkpt>
      <trkpt lat="47.2182" lon="5.52571">
        <ele>220.279175</ele>
        <time>2011-06-03T15:16:44Z</time>
      </trkpt>
      <trkpt lat="47.21781" lon="5.52718">
        <ele>223.163208</ele>
        <time>2011-06-03T15:17:06Z</time>
      </trkpt>
      <trkpt lat="47.21775" lon="5.52744">
        <ele>224.124512</ele>
        <time>2011-06-03T15:17:10Z</time>
      </trkpt>
      <trkpt lat="47.21773" lon="5.52785">
        <ele>225.566528</ele>
        <time>2011-06-03T15:17:16Z</time>
      </trkpt>
      <trkpt lat="47.21775" lon="5.52798">
        <ele>226.047119</ele>
        <time>2011-06-03T15:17:18Z</time>
      </trkpt>
      <trkpt lat="47.21783" lon="5.52823">
        <ele>226.527832</ele>
        <time>2011-06-03T15:17:22Z</time>
      </trkpt>
      <trkpt lat="47.21838" lon="5.52897">
        <ele>230.373047</ele>
        <time>2011-06-03T15:17:39Z</time>
      </trkpt>
      <trkpt lat="47.2188" lon="5.52941">
        <ele>233.25708</ele>
        <time>2011-06-03T15:17:51Z</time>
      </trkpt>
      <trkpt lat="47.21924" lon="5.5299">
        <ele>236.140991</ele>
        <time>2011-06-03T15:18:04Z</time>
      </trkpt>
      <trkpt lat="47.21985" lon="5.53057">
        <ele>239.505493</ele>
        <time>2011-06-03T15:18:21Z</time>
      </trkpt>
      <trkpt lat="47.22035" lon="5.53104">
        <ele>242.389648</ele>
        <time>2011-06-03T15:18:35Z</time>
      </trkpt>
      <trkpt lat="47.22119" lon="5.53161">
        <ele>243.831543</ele>
        <time>2011-06-03T15:18:56Z</time>
      </trkpt>
      <trkpt lat="47.2214" lon="5.53181">
        <ele>244.312256</ele>
        <time>2011-06-03T15:19:02Z</time>
      </trkpt>
      <trkpt lat="47.22182" lon="5.53278">
        <ele>246.234863</ele>
        <time>2011-06-03T15:19:21Z</time>
      </trkpt>
      <trkpt lat="47.2219" lon="5.53299">
        <ele>247.196045</ele>
        <time>2011-06-03T15:19:25Z</time>
      </trkpt>
      <trkpt lat="47.22219" lon="5.53358">
        <ele>248.157593</ele>
        <time>2011-06-03T15:19:36Z</time>
      </trkpt>
      <trkpt lat="47.22274" lon="5.53463">
        <ele>250.0802</ele>
        <time>2011-06-03T15:19:56Z</time>
      </trkpt>
      <trkpt lat="47.22287" lon="5.53491">
        <ele>250.560791</ele>
        <time>2011-06-03T15:20:08Z</time>
      </trkpt>
      <trkpt lat="47.22288" lon="5.53489">
        <ele>251.041382</ele>
        <time>2011-06-03T15:21:56Z</time>
      </trkpt>
      <trkpt lat="47.22285" lon="5.53488">
        <ele>251.041382</ele>
        <time>2011-06-03T15:22:00Z</time>
      </trkpt>
      <trkpt lat="47.22282" lon="5.5349">
        <ele>251.041382</ele>
        <time>2011-06-03T15:22:02Z</time>
      </trkpt>
      <trkpt lat="47.22284" lon="5.53495">
        <ele>251.041382</ele>
        <time>2011-06-03T15:22:06Z</time>
      </trkpt>
      <trkpt lat="47.22288" lon="5.53492">
        <ele>251.041382</ele>
        <time>2011-06-03T15:22:10Z</time>
      </trkpt>
      <trkpt lat="47.22291" lon="5.53486">
        <ele>251.041382</ele>
        <time>2011-06-03T15:22:14Z</time>
      </trkpt>
      <trkpt lat="47.22294" lon="5.53487">
        <ele>250.560791</ele>
        <time>2011-06-03T15:22:17Z</time>
      </trkpt>
      <trkpt lat="47.22298" lon="5.53485">
        <ele>250.0802</ele>
        <time>2011-06-03T15:22:22Z</time>
      </trkpt>
      <trkpt lat="47.2229" lon="5.53486">
        <ele>250.560791</ele>
        <time>2011-06-03T15:22:35Z</time>
      </trkpt>
      <trkpt lat="47.22291" lon="5.53487">
        <ele>250.560791</ele>
        <time>2011-06-03T15:22:50Z</time>
      </trkpt>
      <trkpt lat="47.22329" lon="5.5347">
        <ele>249.599487</ele>
        <time>2011-06-03T15:23:03Z</time>
      </trkpt>
      <trkpt lat="47.22354" lon="5.53487">
        <ele>248.638184</ele>
        <time>2011-06-03T15:23:09Z</time>
      </trkpt>
      <trkpt lat="47.22412" lon="5.53625">
        <ele>249.599487</ele>
        <time>2011-06-03T15:23:30Z</time>
      </trkpt>
      <trkpt lat="47.22426" lon="5.53662">
        <ele>249.599487</ele>
        <time>2011-06-03T15:23:35Z</time>
      </trkpt>
      <trkpt lat="47.22445" lon="5.53744">
        <ele>252.002808</ele>
        <time>2011-06-03T15:23:46Z</time>
      </trkpt>
      <trkpt lat="47.22444" lon="5.53773">
        <ele>252.963989</ele>
        <time>2011-06-03T15:23:50Z</time>
      </trkpt>
      <trkpt lat="47.22419" lon="5.53873">
        <ele>256.328735</ele>
        <time>2011-06-03T15:24:06Z</time>
      </trkpt>
      <trkpt lat="47.22404" lon="5.54034">
        <ele>255.848022</ele>
        <time>2011-06-03T15:24:27Z</time>
      </trkpt>
      <trkpt lat="47.22404" lon="5.54089">
        <ele>255.848022</ele>
        <time>2011-06-03T15:24:33Z</time>
      </trkpt>
      <trkpt lat="47.22393" lon="5.54131">
        <ele>256.328735</ele>
        <time>2011-06-03T15:24:38Z</time>
      </trkpt>
      <trkpt lat="47.2233" lon="5.54226">
        <ele>256.809326</ele>
        <time>2011-06-03T15:24:54Z</time>
      </trkpt>
      <trkpt lat="47.22281" lon="5.54286">
        <ele>253.925415</ele>
        <time>2011-06-03T15:25:03Z</time>
      </trkpt>
      <trkpt lat="47.2224" lon="5.54336">
        <ele>251.041382</ele>
        <time>2011-06-03T15:25:12Z</time>
      </trkpt>
      <trkpt lat="47.22232" lon="5.54345">
        <ele>250.0802</ele>
        <time>2011-06-03T15:25:18Z</time>
      </trkpt>
      <trkpt lat="47.22216" lon="5.54395">
        <ele>250.0802</ele>
        <time>2011-06-03T15:25:32Z</time>
      </trkpt>
      <trkpt lat="47.22217" lon="5.54495">
        <ele>249.118774</ele>
        <time>2011-06-03T15:25:46Z</time>
      </trkpt>
      <trkpt lat="47.22251" lon="5.54674">
        <ele>246.234863</ele>
        <time>2011-06-03T15:26:06Z</time>
      </trkpt>
      <trkpt lat="47.22254" lon="5.54684">
        <ele>245.75415</ele>
        <time>2011-06-03T15:26:07Z</time>
      </trkpt>
      <trkpt lat="47.22296" lon="5.54761">
        <ele>242.870239</ele>
        <time>2011-06-03T15:26:15Z</time>
      </trkpt>
      <trkpt lat="47.22353" lon="5.54838">
        <ele>239.024902</ele>
        <time>2011-06-03T15:26:23Z</time>
      </trkpt>
      <trkpt lat="47.22427" lon="5.54935">
        <ele>236.140991</ele>
        <time>2011-06-03T15:26:33Z</time>
      </trkpt>
      <trkpt lat="47.22484" lon="5.55009">
        <ele>232.776489</ele>
        <time>2011-06-03T15:26:41Z</time>
      </trkpt>
      <trkpt lat="47.22506" lon="5.55034">
        <ele>231.334351</ele>
        <time>2011-06-03T15:26:44Z</time>
      </trkpt>
      <trkpt lat="47.22544" lon="5.55078">
        <ele>229.411743</ele>
        <time>2011-06-03T15:26:49Z</time>
      </trkpt>
      <trkpt lat="47.22599" lon="5.5514">
        <ele>225.566528</ele>
        <time>2011-06-03T15:26:56Z</time>
      </trkpt>
      <trkpt lat="47.22622" lon="5.55167">
        <ele>224.124512</ele>
        <time>2011-06-03T15:26:59Z</time>
      </trkpt>
      <trkpt lat="47.22652" lon="5.55207">
        <ele>221.721191</ele>
        <time>2011-06-03T15:27:03Z</time>
      </trkpt>
      <trkpt lat="47.22671" lon="5.5524">
        <ele>219.798584</ele>
        <time>2011-06-03T15:27:06Z</time>
      </trkpt>
      <trkpt lat="47.22714" lon="5.55315">
        <ele>215.953247</ele>
        <time>2011-06-03T15:27:13Z</time>
      </trkpt>
      <trkpt lat="47.22766" lon="5.55402">
        <ele>213.069336</ele>
        <time>2011-06-03T15:27:22Z</time>
      </trkpt>
      <trkpt lat="47.22873" lon="5.55582">
        <ele>213.069336</ele>
        <time>2011-06-03T15:27:44Z</time>
      </trkpt>
      <trkpt lat="47.23005" lon="5.55798">
        <ele>213.069336</ele>
        <time>2011-06-03T15:28:14Z</time>
      </trkpt>
      <trkpt lat="47.23049" lon="5.55899">
        <ele>209.704834</ele>
        <time>2011-06-03T15:28:25Z</time>
      </trkpt>
      <trkpt lat="47.23075" lon="5.56032">
        <ele>206.340088</ele>
        <time>2011-06-03T15:28:37Z</time>
      </trkpt>
      <trkpt lat="47.23112" lon="5.56239">
        <ele>203.93689</ele>
        <time>2011-06-03T15:28:55Z</time>
      </trkpt>
      <trkpt lat="47.23141" lon="5.56417">
        <ele>204.41748</ele>
        <time>2011-06-03T15:29:13Z</time>
      </trkpt>
      <trkpt lat="47.23146" lon="5.56516">
        <ele>203.93689</ele>
        <time>2011-06-03T15:29:23Z</time>
      </trkpt>
      <trkpt lat="47.23188" lon="5.56656">
        <ele>203.93689</ele>
        <time>2011-06-03T15:29:38Z</time>
      </trkpt>
      <trkpt lat="47.23201" lon="5.56689">
        <ele>203.93689</ele>
        <time>2011-06-03T15:29:42Z</time>
      </trkpt>
      <trkpt lat="47.23207" lon="5.56723">
        <ele>204.898071</ele>
        <time>2011-06-03T15:29:46Z</time>
      </trkpt>
      <trkpt lat="47.23207" lon="5.5674">
        <ele>205.378784</ele>
        <time>2011-06-03T15:29:48Z</time>
      </trkpt>
      <trkpt lat="47.23217" lon="5.56785">
        <ele>205.378784</ele>
        <time>2011-06-03T15:29:54Z</time>
      </trkpt>
      <trkpt lat="47.2326" lon="5.56962">
        <ele>203.456177</ele>
        <time>2011-06-03T15:30:14Z</time>
      </trkpt>
      <trkpt lat="47.23292" lon="5.57082">
        <ele>203.93689</ele>
        <time>2011-06-03T15:30:28Z</time>
      </trkpt>
      <trkpt lat="47.2332" lon="5.57281">
        <ele>205.859497</ele>
        <time>2011-06-03T15:30:52Z</time>
      </trkpt>
      <trkpt lat="47.23341" lon="5.57438">
        <ele>202.975464</ele>
        <time>2011-06-03T15:31:09Z</time>
      </trkpt>
      <trkpt lat="47.23366" lon="5.57626">
        <ele>200.091675</ele>
        <time>2011-06-03T15:31:27Z</time>
      </trkpt>
      <trkpt lat="47.23382" lon="5.57822">
        <ele>199.61084</ele>
        <time>2011-06-03T15:31:47Z</time>
      </trkpt>
      <trkpt lat="47.23364" lon="5.57944">
        <ele>202.494873</ele>
        <time>2011-06-03T15:32:03Z</time>
      </trkpt>
      <trkpt lat="47.23344" lon="5.58104">
        <ele>205.859497</ele>
        <time>2011-06-03T15:32:23Z</time>
      </trkpt>
      <trkpt lat="47.23362" lon="5.58236">
        <ele>207.782104</ele>
        <time>2011-06-03T15:32:40Z</time>
      </trkpt>
      <trkpt lat="47.23438" lon="5.58458">
        <ele>208.262817</ele>
        <time>2011-06-03T15:33:09Z</time>
      </trkpt>
      <trkpt lat="47.2347" lon="5.5857">
        <ele>211.146729</ele>
        <time>2011-06-03T15:33:24Z</time>
      </trkpt>
      <trkpt lat="47.23515" lon="5.58742">
        <ele>211.146729</ele>
        <time>2011-06-03T15:33:48Z</time>
      </trkpt>
      <trkpt lat="47.23551" lon="5.589">
        <ele>209.224121</ele>
        <time>2011-06-03T15:34:07Z</time>
      </trkpt>
      <trkpt lat="47.23601" lon="5.59156">
        <ele>209.704834</ele>
        <time>2011-06-03T15:34:35Z</time>
      </trkpt>
      <trkpt lat="47.23661" lon="5.59244">
        <ele>211.627441</ele>
        <time>2011-06-03T15:34:49Z</time>
      </trkpt>
      <trkpt lat="47.23754" lon="5.59368">
        <ele>210.185425</ele>
        <time>2011-06-03T15:35:08Z</time>
      </trkpt>
      <trkpt lat="47.23822" lon="5.59542">
        <ele>210.666016</ele>
        <time>2011-06-03T15:35:27Z</time>
      </trkpt>
      <trkpt lat="47.23929" lon="5.59692">
        <ele>211.627441</ele>
        <time>2011-06-03T15:35:49Z</time>
      </trkpt>
      <trkpt lat="47.24084" lon="5.59905">
        <ele>212.108032</ele>
        <time>2011-06-03T15:36:21Z</time>
      </trkpt>
      <trkpt lat="47.24218" lon="5.60087">
        <ele>209.704834</ele>
        <time>2011-06-03T15:36:48Z</time>
      </trkpt>
      <trkpt lat="47.24287" lon="5.60183">
        <ele>206.340088</ele>
        <time>2011-06-03T15:37:01Z</time>
      </trkpt>
      <trkpt lat="47.24292" lon="5.6019">
        <ele>206.340088</ele>
        <time>2011-06-03T15:37:02Z</time>
      </trkpt>
      <trkpt lat="47.24431" lon="5.60352">
        <ele>203.93689</ele>
        <time>2011-06-03T15:37:27Z</time>
      </trkpt>
      <trkpt lat="47.24532" lon="5.60452">
        <ele>206.820679</ele>
        <time>2011-06-03T15:37:46Z</time>
      </trkpt>
      <trkpt lat="47.24587" lon="5.6051">
        <ele>206.820679</ele>
        <time>2011-06-03T15:37:58Z</time>
      </trkpt>
      <trkpt lat="47.24597" lon="5.60539">
        <ele>207.301392</ele>
        <time>2011-06-03T15:38:04Z</time>
      </trkpt>
      <trkpt lat="47.24589" lon="5.60697">
        <ele>208.743408</ele>
        <time>2011-06-03T15:38:26Z</time>
      </trkpt>
      <trkpt lat="47.24582" lon="5.60887">
        <ele>207.782104</ele>
        <time>2011-06-03T15:38:48Z</time>
      </trkpt>
      <trkpt lat="47.24582" lon="5.60897">
        <ele>207.782104</ele>
        <time>2011-06-03T15:38:49Z</time>
      </trkpt>
      <trkpt lat="47.24603" lon="5.6104">
        <ele>204.41748</ele>
        <time>2011-06-03T15:39:02Z</time>
      </trkpt>
      <trkpt lat="47.2462" lon="5.61131">
        <ele>202.014282</ele>
        <time>2011-06-03T15:39:10Z</time>
      </trkpt>
      <trkpt lat="47.24624" lon="5.61152">
        <ele>201.052856</ele>
        <time>2011-06-03T15:39:12Z</time>
      </trkpt>
      <trkpt lat="47.2464" lon="5.61242">
        <ele>198.168945</ele>
        <time>2011-06-03T15:39:22Z</time>
      </trkpt>
      <trkpt lat="47.24645" lon="5.61257">
        <ele>197.688232</ele>
        <time>2011-06-03T15:39:25Z</time>
      </trkpt>
      <trkpt lat="47.2466" lon="5.61264">
        <ele>198.168945</ele>
        <time>2011-06-03T15:39:30Z</time>
      </trkpt>
      <trkpt lat="47.24732" lon="5.6132">
        <ele>198.649536</ele>
        <time>2011-06-03T15:39:48Z</time>
      </trkpt>
      <trkpt lat="47.24842" lon="5.61391">
        <ele>200.091675</ele>
        <time>2011-06-03T15:40:13Z</time>
      </trkpt>
      <trkpt lat="47.24949" lon="5.61478">
        <ele>202.014282</ele>
        <time>2011-06-03T15:40:39Z</time>
      </trkpt>
      <trkpt lat="47.24961" lon="5.61488">
        <ele>202.494873</ele>
        <time>2011-06-03T15:40:42Z</time>
      </trkpt>
      <trkpt lat="47.2503" lon="5.61574">
        <ele>201.052856</ele>
        <time>2011-06-03T15:41:02Z</time>
      </trkpt>
      <trkpt lat="47.2503" lon="5.61588">
        <ele>200.572266</ele>
        <time>2011-06-03T15:41:07Z</time>
      </trkpt>
      <trkpt lat="47.25039" lon="5.61597">
        <ele>201.052856</ele>
        <time>2011-06-03T15:41:14Z</time>
      </trkpt>
      <trkpt lat="47.25061" lon="5.61599">
        <ele>200.572266</ele>
        <time>2011-06-03T15:41:24Z</time>
      </trkpt>
      <trkpt lat="47.25102" lon="5.61587">
        <ele>200.572266</ele>
        <time>2011-06-03T15:41:37Z</time>
      </trkpt>
      <trkpt lat="47.25163" lon="5.61567">
        <ele>201.052856</ele>
        <time>2011-06-03T15:41:50Z</time>
      </trkpt>
      <trkpt lat="47.25183" lon="5.61565">
        <ele>201.533569</ele>
        <time>2011-06-03T15:41:54Z</time>
      </trkpt>
      <trkpt lat="47.25277" lon="5.61594">
        <ele>199.61084</ele>
        <time>2011-06-03T15:42:10Z</time>
      </trkpt>
      <trkpt lat="47.25309" lon="5.61594">
        <ele>198.649536</ele>
        <time>2011-06-03T15:42:15Z</time>
      </trkpt>
      <trkpt lat="47.25346" lon="5.61581">
        <ele>198.168945</ele>
        <time>2011-06-03T15:42:21Z</time>
      </trkpt>
      <trkpt lat="47.25368" lon="5.61561">
        <ele>196.726929</ele>
        <time>2011-06-03T15:42:25Z</time>
      </trkpt>
      <trkpt lat="47.25462" lon="5.61382">
        <ele>197.688232</ele>
        <time>2011-06-03T15:42:49Z</time>
      </trkpt>
      <trkpt lat="47.2552" lon="5.61264">
        <ele>201.052856</ele>
        <time>2011-06-03T15:43:07Z</time>
      </trkpt>
      <trkpt lat="47.2557" lon="5.61111">
        <ele>204.41748</ele>
        <time>2011-06-03T15:43:28Z</time>
      </trkpt>
      <trkpt lat="47.2559" lon="5.60951">
        <ele>207.301392</ele>
        <time>2011-06-03T15:43:47Z</time>
      </trkpt>
      <trkpt lat="47.25615" lon="5.60795">
        <ele>208.743408</ele>
        <time>2011-06-03T15:44:07Z</time>
      </trkpt>
      <trkpt lat="47.25659" lon="5.60619">
        <ele>209.224121</ele>
        <time>2011-06-03T15:44:32Z</time>
      </trkpt>
      <trkpt lat="47.25703" lon="5.60533">
        <ele>206.340088</ele>
        <time>2011-06-03T15:44:43Z</time>
      </trkpt>
      <trkpt lat="47.2575" lon="5.60466">
        <ele>202.975464</ele>
        <time>2011-06-03T15:44:50Z</time>
      </trkpt>
      <trkpt lat="47.25803" lon="5.60409">
        <ele>200.091675</ele>
        <time>2011-06-03T15:44:56Z</time>
      </trkpt>
      <trkpt lat="47.25812" lon="5.60399">
        <ele>199.61084</ele>
        <time>2011-06-03T15:44:57Z</time>
      </trkpt>
      <trkpt lat="47.2584" lon="5.6037">
        <ele>197.688232</ele>
        <time>2011-06-03T15:45:00Z</time>
      </trkpt>
      <trkpt lat="47.25867" lon="5.60337">
        <ele>196.246338</ele>
        <time>2011-06-03T15:45:03Z</time>
      </trkpt>
      <trkpt lat="47.25891" lon="5.60304">
        <ele>194.804321</ele>
        <time>2011-06-03T15:45:06Z</time>
      </trkpt>
      <trkpt lat="47.2598" lon="5.60179">
        <ele>193.362305</ele>
        <time>2011-06-03T15:45:20Z</time>
      </trkpt>
      <trkpt lat="47.26079" lon="5.60004">
        <ele>192.881714</ele>
        <time>2011-06-03T15:45:41Z</time>
      </trkpt>
      <trkpt lat="47.26157" lon="5.59871">
        <ele>193.843018</ele>
        <time>2011-06-03T15:45:58Z</time>
      </trkpt>
      <trkpt lat="47.26209" lon="5.59847">
        <ele>194.32373</ele>
        <time>2011-06-03T15:46:10Z</time>
      </trkpt>
      <trkpt lat="47.2623" lon="5.5984">
        <ele>194.32373</ele>
        <time>2011-06-03T15:46:15Z</time>
      </trkpt>
      <trkpt lat="47.26238" lon="5.59811">
        <ele>193.362305</ele>
        <time>2011-06-03T15:46:20Z</time>
      </trkpt>
      <trkpt lat="47.26225" lon="5.59745">
        <ele>191.920288</ele>
        <time>2011-06-03T15:46:29Z</time>
      </trkpt>
      <trkpt lat="47.26225" lon="5.59719">
        <ele>192.401123</ele>
        <time>2011-06-03T15:46:33Z</time>
      </trkpt>
      <trkpt lat="47.26227" lon="5.59705">
        <ele>192.401123</ele>
        <time>2011-06-03T15:46:35Z</time>
      </trkpt>
      <trkpt lat="47.26233" lon="5.59687">
        <ele>192.401123</ele>
        <time>2011-06-03T15:46:38Z</time>
      </trkpt>
      <trkpt lat="47.2626" lon="5.59656">
        <ele>193.843018</ele>
        <time>2011-06-03T15:46:46Z</time>
      </trkpt>
      <trkpt lat="47.26301" lon="5.5965">
        <ele>197.20752</ele>
        <time>2011-06-03T15:46:58Z</time>
      </trkpt>
      <trkpt lat="47.26328" lon="5.59652">
        <ele>200.572266</ele>
        <time>2011-06-03T15:47:06Z</time>
      </trkpt>
      <trkpt lat="47.2634" lon="5.59619">
        <ele>202.014282</ele>
        <time>2011-06-03T15:47:14Z</time>
      </trkpt>
      <trkpt lat="47.26357" lon="5.59501">
        <ele>203.456177</ele>
        <time>2011-06-03T15:47:32Z</time>
      </trkpt>
      <trkpt lat="47.26371" lon="5.59436">
        <ele>203.93689</ele>
        <time>2011-06-03T15:47:42Z</time>
      </trkpt>
      <trkpt lat="47.26372" lon="5.59373">
        <ele>201.533569</ele>
        <time>2011-06-03T15:47:49Z</time>
      </trkpt>
      <trkpt lat="47.26379" lon="5.59291">
        <ele>200.572266</ele>
        <time>2011-06-03T15:47:56Z</time>
      </trkpt>
      <trkpt lat="47.26395" lon="5.59261">
        <ele>202.014282</ele>
        <time>2011-06-03T15:48:01Z</time>
      </trkpt>
      <trkpt lat="47.26407" lon="5.59256">
        <ele>202.975464</ele>
        <time>2011-06-03T15:48:04Z</time>
      </trkpt>
      <trkpt lat="47.2643" lon="5.59239">
        <ele>204.41748</ele>
        <time>2011-06-03T15:48:10Z</time>
      </trkpt>
      <trkpt lat="47.2648" lon="5.5919">
        <ele>207.301392</ele>
        <time>2011-06-03T15:48:23Z</time>
      </trkpt>
      <trkpt lat="47.26514" lon="5.5916">
        <ele>210.666016</ele>
        <time>2011-06-03T15:48:32Z</time>
      </trkpt>
      <trkpt lat="47.26523" lon="5.59148">
        <ele>211.146729</ele>
        <time>2011-06-03T15:48:35Z</time>
      </trkpt>
      <trkpt lat="47.26573" lon="5.59048">
        <ele>214.03064</ele>
        <time>2011-06-03T15:48:53Z</time>
      </trkpt>
      <trkpt lat="47.26622" lon="5.58988">
        <ele>217.395386</ele>
        <time>2011-06-03T15:49:07Z</time>
      </trkpt>
      <trkpt lat="47.2666" lon="5.58946">
        <ele>220.279175</ele>
        <time>2011-06-03T15:49:20Z</time>
      </trkpt>
      <trkpt lat="47.26716" lon="5.58867">
        <ele>222.682495</ele>
        <time>2011-06-03T15:49:38Z</time>
      </trkpt>
      <trkpt lat="47.2674" lon="5.58822">
        <ele>223.163208</ele>
        <time>2011-06-03T15:49:46Z</time>
      </trkpt>
      <trkpt lat="47.26792" lon="5.58739">
        <ele>224.605225</ele>
        <time>2011-06-03T15:50:02Z</time>
      </trkpt>
      <trkpt lat="47.26885" lon="5.58625">
        <ele>222.682495</ele>
        <time>2011-06-03T15:50:22Z</time>
      </trkpt>
      <trkpt lat="47.26988" lon="5.58506">
        <ele>220.279175</ele>
        <time>2011-06-03T15:50:39Z</time>
      </trkpt>
      <trkpt lat="47.27102" lon="5.58368">
        <ele>218.356567</ele>
        <time>2011-06-03T15:50:58Z</time>
      </trkpt>
      <trkpt lat="47.2721" lon="5.58277">
        <ele>216.914673</ele>
        <time>2011-06-03T15:51:16Z</time>
      </trkpt>
      <trkpt lat="47.27252" lon="5.5826">
        <ele>214.991943</ele>
        <time>2011-06-03T15:51:21Z</time>
      </trkpt>
      <trkpt lat="47.27309" lon="5.58237">
        <ele>213.550049</ele>
        <time>2011-06-03T15:51:28Z</time>
      </trkpt>
      <trkpt lat="47.27322" lon="5.58228">
        <ele>214.03064</ele>
        <time>2011-06-03T15:51:30Z</time>
      </trkpt>
      <trkpt lat="47.27337" lon="5.58212">
        <ele>214.03064</ele>
        <time>2011-06-03T15:51:33Z</time>
      </trkpt>
      <trkpt lat="47.27378" lon="5.58109">
        <ele>216.914673</ele>
        <time>2011-06-03T15:51:47Z</time>
      </trkpt>
      <trkpt lat="47.27442" lon="5.57927">
        <ele>218.83728</ele>
        <time>2011-06-03T15:52:09Z</time>
      </trkpt>
      <trkpt lat="47.27478" lon="5.57826">
        <ele>217.875977</ele>
        <time>2011-06-03T15:52:24Z</time>
      </trkpt>
      <trkpt lat="47.27491" lon="5.57782">
        <ele>215.953247</ele>
        <time>2011-06-03T15:52:34Z</time>
      </trkpt>
      <trkpt lat="47.27504" lon="5.57734">
        <ele>214.51123</ele>
        <time>2011-06-03T15:52:46Z</time>
      </trkpt>
      <trkpt lat="47.27522" lon="5.57668">
        <ele>211.146729</ele>
        <time>2011-06-03T15:52:55Z</time>
      </trkpt>
      <trkpt lat="47.27524" lon="5.57658">
        <ele>210.666016</ele>
        <time>2011-06-03T15:52:56Z</time>
      </trkpt>
      <trkpt lat="47.27539" lon="5.57612">
        <ele>208.262817</ele>
        <time>2011-06-03T15:53:01Z</time>
      </trkpt>
      <trkpt lat="47.27553" lon="5.57559">
        <ele>205.378784</ele>
        <time>2011-06-03T15:53:06Z</time>
      </trkpt>
      <trkpt lat="47.27564" lon="5.5749">
        <ele>202.014282</ele>
        <time>2011-06-03T15:53:12Z</time>
      </trkpt>
      <trkpt lat="47.2757" lon="5.57451">
        <ele>200.572266</ele>
        <time>2011-06-03T15:53:15Z</time>
      </trkpt>
      <trkpt lat="47.27578" lon="5.57401">
        <ele>198.649536</ele>
        <time>2011-06-03T15:53:19Z</time>
      </trkpt>
      <trkpt lat="47.27588" lon="5.57365">
        <ele>197.20752</ele>
        <time>2011-06-03T15:53:22Z</time>
      </trkpt>
      <trkpt lat="47.27601" lon="5.57336">
        <ele>196.246338</ele>
        <time>2011-06-03T15:53:25Z</time>
      </trkpt>
      <trkpt lat="47.27623" lon="5.57305">
        <ele>195.284912</ele>
        <time>2011-06-03T15:53:29Z</time>
      </trkpt>
      <trkpt lat="47.27648" lon="5.57282">
        <ele>194.32373</ele>
        <time>2011-06-03T15:53:33Z</time>
      </trkpt>
      <trkpt lat="47.27662" lon="5.57259">
        <ele>193.362305</ele>
        <time>2011-06-03T15:53:36Z</time>
      </trkpt>
      <trkpt lat="47.2768" lon="5.57184">
        <ele>192.401123</ele>
        <time>2011-06-03T15:53:45Z</time>
      </trkpt>
      <trkpt lat="47.27704" lon="5.57136">
        <ele>192.401123</ele>
        <time>2011-06-03T15:53:52Z</time>
      </trkpt>
      <trkpt lat="47.27778" lon="5.57085">
        <ele>192.401123</ele>
        <time>2011-06-03T15:54:06Z</time>
      </trkpt>
      <trkpt lat="47.27827" lon="5.57029">
        <ele>192.401123</ele>
        <time>2011-06-03T15:54:17Z</time>
      </trkpt>
      <trkpt lat="47.27866" lon="5.56917">
        <ele>193.362305</ele>
        <time>2011-06-03T15:54:34Z</time>
      </trkpt>
      <trkpt lat="47.27874" lon="5.56898">
        <ele>193.362305</ele>
        <time>2011-06-03T15:54:38Z</time>
      </trkpt>
      <trkpt lat="47.27863" lon="5.56884">
        <ele>191.920288</ele>
        <time>2011-06-03T15:54:42Z</time>
      </trkpt>
      <trkpt lat="47.27855" lon="5.5685">
        <ele>190.958984</ele>
        <time>2011-06-03T15:54:47Z</time>
      </trkpt>
      <trkpt lat="47.27819" lon="5.56762">
        <ele>190.958984</ele>
        <time>2011-06-03T15:55:02Z</time>
      </trkpt>
      <trkpt lat="47.27806" lon="5.56733">
        <ele>190.958984</ele>
        <time>2011-06-03T15:55:12Z</time>
      </trkpt>
      <trkpt lat="47.27803" lon="5.56724">
        <ele>190.478394</ele>
        <time>2011-06-03T15:55:25Z</time>
      </trkpt>
      <trkpt lat="47.27799" lon="5.56699">
        <ele>190.958984</ele>
        <time>2011-06-03T15:55:49Z</time>
      </trkpt>
      <trkpt lat="47.27792" lon="5.56608">
        <ele>191.439575</ele>
        <time>2011-06-03T15:56:06Z</time>
      </trkpt>
      <trkpt lat="47.27797" lon="5.56571">
        <ele>193.362305</ele>
        <time>2011-06-03T15:56:17Z</time>
      </trkpt>
      <trkpt lat="47.27799" lon="5.56567">
        <ele>193.843018</ele>
        <time>2011-06-03T15:56:33Z</time>
      </trkpt>
      <trkpt lat="47.27792" lon="5.56558">
        <ele>194.32373</ele>
        <time>2011-06-03T15:56:38Z</time>
      </trkpt>
      <trkpt lat="47.27733" lon="5.56535">
        <ele>194.32373</ele>
        <time>2011-06-03T15:56:52Z</time>
      </trkpt>
      <trkpt lat="47.27729" lon="5.56534">
        <ele>193.843018</ele>
        <time>2011-06-03T15:56:54Z</time>
      </trkpt>
      <trkpt lat="47.2771" lon="5.56568">
        <ele>193.362305</ele>
        <time>2011-06-03T15:57:02Z</time>
      </trkpt>
      <trkpt lat="47.27693" lon="5.56593">
        <ele>192.401123</ele>
        <time>2011-06-03T15:57:06Z</time>
      </trkpt>
      <trkpt lat="47.27677" lon="5.56618">
        <ele>190.958984</ele>
        <time>2011-06-03T15:57:15Z</time>
      </trkpt>
      <trkpt lat="47.27681" lon="5.56622">
        <ele>190.958984</ele>
        <time>2011-06-03T15:57:56Z</time>
      </trkpt>
      <trkpt lat="47.27676" lon="5.56612">
        <ele>190.958984</ele>
        <time>2011-06-03T15:58:14Z</time>
      </trkpt>
      <trkpt lat="47.2768" lon="5.56615">
        <ele>190.958984</ele>
        <time>2011-06-03T15:58:41Z</time>
      </trkpt>
      <trkpt lat="47.27687" lon="5.56623">
        <ele>191.920288</ele>
        <time>2011-06-03T15:59:00Z</time>
      </trkpt>
      <trkpt lat="47.27687" lon="5.56624">
        <ele>191.920288</ele>
        <time>2011-06-03T15:59:40Z</time>
      </trkpt>
      <trkpt lat="47.27687" lon="5.56623">
        <ele>191.439575</ele>
        <time>2011-06-03T15:59:55Z</time>
      </trkpt>
      <trkpt lat="47.27681" lon="5.56615">
        <ele>191.439575</ele>
        <time>2011-06-03T16:00:12Z</time>
      </trkpt>
      <trkpt lat="47.27686" lon="5.56619">
        <ele>191.439575</ele>
        <time>2011-06-03T16:00:33Z</time>
      </trkpt>
      <trkpt lat="47.27687" lon="5.56619">
        <ele>191.920288</ele>
        <time>2011-06-03T16:02:18Z</time>
      </trkpt>
      <trkpt lat="47.27687" lon="5.56621">
        <ele>191.920288</ele>
        <time>2011-06-03T16:03:40Z</time>
      </trkpt>
      <trkpt lat="47.27688" lon="5.56622">
        <ele>191.439575</ele>
        <time>2011-06-03T16:04:43Z</time>
      </trkpt>
      <trkpt lat="47.27683" lon="5.56617">
        <ele>191.439575</ele>
        <time>2011-06-03T16:05:36Z</time>
      </trkpt>
      <trkpt lat="47.27681" lon="5.56615">
        <ele>191.439575</ele>
        <time>2011-06-03T16:05:51Z</time>
      </trkpt>
      <trkpt lat="47.27681" lon="5.56614">
        <ele>191.920288</ele>
        <time>2011-06-03T16:06:53Z</time>
      </trkpt>
      <trkpt lat="47.2768" lon="5.56613">
        <ele>191.920288</ele>
        <time>2011-06-03T16:08:15Z</time>
      </trkpt>
      <trkpt lat="47.2768" lon="5.56612">
        <ele>191.920288</ele>
        <time>2011-06-03T16:08:44Z</time>
      </trkpt>
      <trkpt lat="47.2768" lon="5.56611">
        <ele>192.401123</ele>
        <time>2011-06-03T16:09:06Z</time>
      </trkpt>
      <trkpt lat="47.27684" lon="5.56603">
        <ele>192.401123</ele>
        <time>2011-06-03T16:09:13Z</time>
      </trkpt>
      <trkpt lat="47.2769" lon="5.56598">
        <ele>192.881714</ele>
        <time>2011-06-03T16:09:18Z</time>
      </trkpt>
      <trkpt lat="47.27721" lon="5.56542">
        <ele>194.804321</ele>
        <time>2011-06-03T16:09:35Z</time>
      </trkpt>
      <trkpt lat="47.27721" lon="5.5654">
        <ele>194.804321</ele>
        <time>2011-06-03T16:09:36Z</time>
      </trkpt>
      <trkpt lat="47.27722" lon="5.56536">
        <ele>195.284912</ele>
        <time>2011-06-03T16:09:52Z</time>
      </trkpt>
      <trkpt lat="47.27722" lon="5.56534">
        <ele>195.284912</ele>
        <time>2011-06-03T16:09:57Z</time>
      </trkpt>
      <trkpt lat="47.2769" lon="5.56515">
        <ele>195.284912</ele>
        <time>2011-06-03T16:10:09Z</time>
      </trkpt>
      <trkpt lat="47.27625" lon="5.56481">
        <ele>195.765625</ele>
        <time>2011-06-03T16:10:23Z</time>
      </trkpt>
      <trkpt lat="47.27612" lon="5.56473">
        <ele>196.246338</ele>
        <time>2011-06-03T16:10:26Z</time>
      </trkpt>
      <trkpt lat="47.27535" lon="5.56437">
        <ele>196.246338</ele>
        <time>2011-06-03T16:10:40Z</time>
      </trkpt>
      <trkpt lat="47.27441" lon="5.56393">
        <ele>195.284912</ele>
        <time>2011-06-03T16:10:55Z</time>
      </trkpt>
      <trkpt lat="47.27341" lon="5.56356">
        <ele>193.843018</ele>
        <time>2011-06-03T16:11:10Z</time>
      </trkpt>
      <trkpt lat="47.27269" lon="5.56304">
        <ele>193.843018</ele>
        <time>2011-06-03T16:11:23Z</time>
      </trkpt>
      <trkpt lat="47.27218" lon="5.56188">
        <ele>194.804321</ele>
        <time>2011-06-03T16:11:38Z</time>
      </trkpt>
      <trkpt lat="47.27163" lon="5.55995">
        <ele>196.726929</ele>
        <time>2011-06-03T16:12:03Z</time>
      </trkpt>
      <trkpt lat="47.27175" lon="5.55872">
        <ele>199.130127</ele>
        <time>2011-06-03T16:12:19Z</time>
      </trkpt>
      <trkpt lat="47.27226" lon="5.55705">
        <ele>202.014282</ele>
        <time>2011-06-03T16:12:41Z</time>
      </trkpt>
      <trkpt lat="47.27232" lon="5.55652">
        <ele>202.494873</ele>
        <time>2011-06-03T16:12:48Z</time>
      </trkpt>
      <trkpt lat="47.27228" lon="5.5563">
        <ele>202.975464</ele>
        <time>2011-06-03T16:12:51Z</time>
      </trkpt>
      <trkpt lat="47.27201" lon="5.55579">
        <ele>204.41748</ele>
        <time>2011-06-03T16:13:00Z</time>
      </trkpt>
      <trkpt lat="47.27126" lon="5.55544">
        <ele>205.859497</ele>
        <time>2011-06-03T16:13:15Z</time>
      </trkpt>
      <trkpt lat="47.27039" lon="5.55536">
        <ele>208.262817</ele>
        <time>2011-06-03T16:13:32Z</time>
      </trkpt>
      <trkpt lat="47.26994" lon="5.55547">
        <ele>208.743408</ele>
        <time>2011-06-03T16:13:41Z</time>
      </trkpt>
      <trkpt lat="47.26958" lon="5.55554">
        <ele>208.743408</ele>
        <time>2011-06-03T16:13:48Z</time>
      </trkpt>
      <trkpt lat="47.26935" lon="5.5555">
        <ele>208.743408</ele>
        <time>2011-06-03T16:13:52Z</time>
      </trkpt>
      <trkpt lat="47.26859" lon="5.55471">
        <ele>208.743408</ele>
        <time>2011-06-03T16:14:06Z</time>
      </trkpt>
      <trkpt lat="47.26731" lon="5.55243">
        <ele>210.666016</ele>
        <time>2011-06-03T16:14:40Z</time>
      </trkpt>
      <trkpt lat="47.26658" lon="5.5512">
        <ele>214.03064</ele>
        <time>2011-06-03T16:15:00Z</time>
      </trkpt>
      <trkpt lat="47.26599" lon="5.55018">
        <ele>216.914673</ele>
        <time>2011-06-03T16:15:18Z</time>
      </trkpt>
      <trkpt lat="47.26538" lon="5.54913">
        <ele>220.279175</ele>
        <time>2011-06-03T16:15:38Z</time>
      </trkpt>
      <trkpt lat="47.26499" lon="5.54846">
        <ele>223.643799</ele>
        <time>2011-06-03T16:15:52Z</time>
      </trkpt>
      <trkpt lat="47.26461" lon="5.54781">
        <ele>226.527832</ele>
        <time>2011-06-03T16:16:06Z</time>
      </trkpt>
      <trkpt lat="47.26425" lon="5.5472">
        <ele>229.892334</ele>
        <time>2011-06-03T16:16:19Z</time>
      </trkpt>
      <trkpt lat="47.26346" lon="5.54584">
        <ele>230.373047</ele>
        <time>2011-06-03T16:16:45Z</time>
      </trkpt>
      <trkpt lat="47.26294" lon="5.54498">
        <ele>230.373047</ele>
        <time>2011-06-03T16:16:59Z</time>
      </trkpt>
      <trkpt lat="47.26272" lon="5.5448">
        <ele>230.85376</ele>
        <time>2011-06-03T16:17:04Z</time>
      </trkpt>
      <trkpt lat="47.26258" lon="5.54474">
        <ele>230.373047</ele>
        <time>2011-06-03T16:17:07Z</time>
      </trkpt>
      <trkpt lat="47.26235" lon="5.54448">
        <ele>230.85376</ele>
        <time>2011-06-03T16:17:17Z</time>
      </trkpt>
      <trkpt lat="47.2623" lon="5.54447">
        <ele>230.85376</ele>
        <time>2011-06-03T16:17:20Z</time>
      </trkpt>
      <trkpt lat="47.26204" lon="5.54411">
        <ele>228.931152</ele>
        <time>2011-06-03T16:17:34Z</time>
      </trkpt>
      <trkpt lat="47.26205" lon="5.54386">
        <ele>228.931152</ele>
        <time>2011-06-03T16:17:38Z</time>
      </trkpt>
      <trkpt lat="47.26218" lon="5.5433">
        <ele>229.411743</ele>
        <time>2011-06-03T16:17:49Z</time>
      </trkpt>
      <trkpt lat="47.26218" lon="5.54318">
        <ele>229.411743</ele>
        <time>2011-06-03T16:17:51Z</time>
      </trkpt>
      <trkpt lat="47.26194" lon="5.54212">
        <ele>229.411743</ele>
        <time>2011-06-03T16:18:10Z</time>
      </trkpt>
      <trkpt lat="47.26153" lon="5.5406">
        <ele>230.373047</ele>
        <time>2011-06-03T16:18:37Z</time>
      </trkpt>
      <trkpt lat="47.2612" lon="5.53935">
        <ele>229.411743</ele>
        <time>2011-06-03T16:19:00Z</time>
      </trkpt>
      <trkpt lat="47.26091" lon="5.53823">
        <ele>227.008545</ele>
        <time>2011-06-03T16:19:16Z</time>
      </trkpt>
      <trkpt lat="47.26053" lon="5.53631">
        <ele>223.643799</ele>
        <time>2011-06-03T16:19:38Z</time>
      </trkpt>
      <trkpt lat="47.26034" lon="5.5342">
        <ele>220.759888</ele>
        <time>2011-06-03T16:20:00Z</time>
      </trkpt>
      <trkpt lat="47.26015" lon="5.53213">
        <ele>220.759888</ele>
        <time>2011-06-03T16:20:24Z</time>
      </trkpt>
      <trkpt lat="47.26009" lon="5.531">
        <ele>224.124512</ele>
        <time>2011-06-03T16:20:38Z</time>
      </trkpt>
      <trkpt lat="47.2603" lon="5.52899">
        <ele>221.721191</ele>
        <time>2011-06-03T16:21:00Z</time>
      </trkpt>
      <trkpt lat="47.26049" lon="5.52731">
        <ele>218.356567</ele>
        <time>2011-06-03T16:21:16Z</time>
      </trkpt>
      <trkpt lat="47.26066" lon="5.52565">
        <ele>215.472656</ele>
        <time>2011-06-03T16:21:30Z</time>
      </trkpt>
      <trkpt lat="47.26069" lon="5.52539">
        <ele>214.51123</ele>
        <time>2011-06-03T16:21:32Z</time>
      </trkpt>
      <trkpt lat="47.26083" lon="5.52419">
        <ele>211.146729</ele>
        <time>2011-06-03T16:21:41Z</time>
      </trkpt>
      <trkpt lat="47.26106" lon="5.52204">
        <ele>207.782104</ele>
        <time>2011-06-03T16:21:58Z</time>
      </trkpt>
      <trkpt lat="47.2612" lon="5.52009">
        <ele>206.340088</ele>
        <time>2011-06-03T16:22:13Z</time>
      </trkpt>
      <trkpt lat="47.26102" lon="5.5184">
        <ele>205.378784</ele>
        <time>2011-06-03T16:22:27Z</time>
      </trkpt>
      <trkpt lat="47.26048" lon="5.51695">
        <ele>203.456177</ele>
        <time>2011-06-03T16:22:42Z</time>
      </trkpt>
      <trkpt lat="47.26044" lon="5.51686">
        <ele>203.456177</ele>
        <time>2011-06-03T16:22:43Z</time>
      </trkpt>
      <trkpt lat="47.26" lon="5.51668">
        <ele>202.975464</ele>
        <time>2011-06-03T16:22:50Z</time>
      </trkpt>
      <trkpt lat="47.25987" lon="5.51679">
        <ele>202.494873</ele>
        <time>2011-06-03T16:22:52Z</time>
      </trkpt>
      <trkpt lat="47.2594" lon="5.51671">
        <ele>202.014282</ele>
        <time>2011-06-03T16:22:59Z</time>
      </trkpt>
      <trkpt lat="47.25931" lon="5.51653">
        <ele>201.533569</ele>
        <time>2011-06-03T16:23:01Z</time>
      </trkpt>
      <trkpt lat="47.25858" lon="5.51474">
        <ele>203.456177</ele>
        <time>2011-06-03T16:23:19Z</time>
      </trkpt>
      <trkpt lat="47.25781" lon="5.51304">
        <ele>205.378784</ele>
        <time>2011-06-03T16:23:40Z</time>
      </trkpt>
      <trkpt lat="47.25704" lon="5.5114">
        <ele>202.494873</ele>
        <time>2011-06-03T16:23:57Z</time>
      </trkpt>
      <trkpt lat="47.25608" lon="5.50935">
        <ele>200.572266</ele>
        <time>2011-06-03T16:24:16Z</time>
      </trkpt>
      <trkpt lat="47.2554" lon="5.50791">
        <ele>202.975464</ele>
        <time>2011-06-03T16:24:32Z</time>
      </trkpt>
      <trkpt lat="47.25468" lon="5.50641">
        <ele>206.340088</ele>
        <time>2011-06-03T16:24:49Z</time>
      </trkpt>
      <trkpt lat="47.25402" lon="5.50502">
        <ele>208.743408</ele>
        <time>2011-06-03T16:25:08Z</time>
      </trkpt>
      <trkpt lat="47.25395" lon="5.50487">
        <ele>208.262817</ele>
        <time>2011-06-03T16:25:10Z</time>
      </trkpt>
      <trkpt lat="47.25314" lon="5.50313">
        <ele>206.820679</ele>
        <time>2011-06-03T16:25:34Z</time>
      </trkpt>
      <trkpt lat="47.2525" lon="5.50176">
        <ele>203.456177</ele>
        <time>2011-06-03T16:25:50Z</time>
      </trkpt>
      <trkpt lat="47.25192" lon="5.50051">
        <ele>200.572266</ele>
        <time>2011-06-03T16:26:02Z</time>
      </trkpt>
      <trkpt lat="47.25078" lon="5.49806">
        <ele>201.533569</ele>
        <time>2011-06-03T16:26:28Z</time>
      </trkpt>
      <trkpt lat="47.24983" lon="5.49648">
        <ele>202.014282</ele>
        <time>2011-06-03T16:26:49Z</time>
      </trkpt>
      <trkpt lat="47.24851" lon="5.49476">
        <ele>203.456177</ele>
        <time>2011-06-03T16:27:14Z</time>
      </trkpt>
      <trkpt lat="47.24723" lon="5.49306">
        <ele>205.378784</ele>
        <time>2011-06-03T16:27:42Z</time>
      </trkpt>
      <trkpt lat="47.24617" lon="5.49165">
        <ele>204.898071</ele>
        <time>2011-06-03T16:28:03Z</time>
      </trkpt>
      <trkpt lat="47.24536" lon="5.49059">
        <ele>201.533569</ele>
        <time>2011-06-03T16:28:16Z</time>
      </trkpt>
      <trkpt lat="47.2452" lon="5.49039">
        <ele>201.052856</ele>
        <time>2011-06-03T16:28:18Z</time>
      </trkpt>
      <trkpt lat="47.24407" lon="5.48892">
        <ele>200.572266</ele>
        <time>2011-06-03T16:28:35Z</time>
      </trkpt>
      <trkpt lat="47.24334" lon="5.48796">
        <ele>203.456177</ele>
        <time>2011-06-03T16:28:49Z</time>
      </trkpt>
      <trkpt lat="47.2421" lon="5.48634">
        <ele>204.41748</ele>
        <time>2011-06-03T16:29:14Z</time>
      </trkpt>
      <trkpt lat="47.24098" lon="5.4849">
        <ele>202.494873</ele>
        <time>2011-06-03T16:29:34Z</time>
      </trkpt>
      <trkpt lat="47.2397" lon="5.48323">
        <ele>199.61084</ele>
        <time>2011-06-03T16:29:56Z</time>
      </trkpt>
      <trkpt lat="47.23915" lon="5.48188">
        <ele>197.688232</ele>
        <time>2011-06-03T16:30:10Z</time>
      </trkpt>
      <trkpt lat="47.23845" lon="5.47999">
        <ele>194.804321</ele>
        <time>2011-06-03T16:30:28Z</time>
      </trkpt>
      <trkpt lat="47.23778" lon="5.47817">
        <ele>196.246338</ele>
        <time>2011-06-03T16:30:47Z</time>
      </trkpt>
      <trkpt lat="47.2372" lon="5.47657">
        <ele>196.246338</ele>
        <time>2011-06-03T16:31:05Z</time>
      </trkpt>
      <trkpt lat="47.23695" lon="5.47592">
        <ele>199.61084</ele>
        <time>2011-06-03T16:31:14Z</time>
      </trkpt>
      <trkpt lat="47.23632" lon="5.47424">
        <ele>199.61084</ele>
        <time>2011-06-03T16:31:36Z</time>
      </trkpt>
      <trkpt lat="47.23597" lon="5.47335">
        <ele>195.765625</ele>
        <time>2011-06-03T16:31:44Z</time>
      </trkpt>
      <trkpt lat="47.23534" lon="5.47176">
        <ele>195.284912</ele>
        <time>2011-06-03T16:31:58Z</time>
      </trkpt>
      <trkpt lat="47.23525" lon="5.47152">
        <ele>196.726929</ele>
        <time>2011-06-03T16:32:01Z</time>
      </trkpt>
      <trkpt lat="47.2351" lon="5.47119">
        <ele>198.168945</ele>
        <time>2011-06-03T16:32:06Z</time>
      </trkpt>
      <trkpt lat="47.23487" lon="5.47076">
        <ele>200.091675</ele>
        <time>2011-06-03T16:32:13Z</time>
      </trkpt>
      <trkpt lat="47.23448" lon="5.46978">
        <ele>201.533569</ele>
        <time>2011-06-03T16:32:27Z</time>
      </trkpt>
      <trkpt lat="47.23424" lon="5.46914">
        <ele>199.130127</ele>
        <time>2011-06-03T16:32:34Z</time>
      </trkpt>
      <trkpt lat="47.23406" lon="5.46864">
        <ele>196.726929</ele>
        <time>2011-06-03T16:32:38Z</time>
      </trkpt>
      <trkpt lat="47.23391" lon="5.46823">
        <ele>194.804321</ele>
        <time>2011-06-03T16:32:41Z</time>
      </trkpt>
      <trkpt lat="47.2334" lon="5.46687">
        <ele>197.688232</ele>
        <time>2011-06-03T16:32:53Z</time>
      </trkpt>
      <trkpt lat="47.2331" lon="5.46599">
        <ele>201.052856</ele>
        <time>2011-06-03T16:33:04Z</time>
      </trkpt>
      <trkpt lat="47.23239" lon="5.46404">
        <ele>202.014282</ele>
        <time>2011-06-03T16:33:27Z</time>
      </trkpt>
      <trkpt lat="47.23155" lon="5.46174">
        <ele>200.091675</ele>
        <time>2011-06-03T16:33:52Z</time>
      </trkpt>
      <trkpt lat="47.2312" lon="5.46085">
        <ele>196.726929</ele>
        <time>2011-06-03T16:34:00Z</time>
      </trkpt>
      <trkpt lat="47.23116" lon="5.46073">
        <ele>196.726929</ele>
        <time>2011-06-03T16:34:01Z</time>
      </trkpt>
      <trkpt lat="47.23026" lon="5.45835">
        <ele>195.284912</ele>
        <time>2011-06-03T16:34:21Z</time>
      </trkpt>
      <trkpt lat="47.22981" lon="5.45717">
        <ele>198.649536</ele>
        <time>2011-06-03T16:34:33Z</time>
      </trkpt>
      <trkpt lat="47.22932" lon="5.45586">
        <ele>196.726929</ele>
        <time>2011-06-03T16:34:46Z</time>
      </trkpt>
      <trkpt lat="47.22896" lon="5.45493">
        <ele>194.32373</ele>
        <time>2011-06-03T16:34:54Z</time>
      </trkpt>
      <trkpt lat="47.22819" lon="5.45296">
        <ele>192.401123</ele>
        <time>2011-06-03T16:35:12Z</time>
      </trkpt>
      <trkpt lat="47.22768" lon="5.45156">
        <ele>194.804321</ele>
        <time>2011-06-03T16:35:27Z</time>
      </trkpt>
      <trkpt lat="47.22724" lon="5.45039">
        <ele>197.688232</ele>
        <time>2011-06-03T16:35:42Z</time>
      </trkpt>
      <trkpt lat="47.22673" lon="5.44899">
        <ele>198.649536</ele>
        <time>2011-06-03T16:35:59Z</time>
      </trkpt>
      <trkpt lat="47.22589" lon="5.44697">
        <ele>197.688232</ele>
        <time>2011-06-03T16:36:23Z</time>
      </trkpt>
      <trkpt lat="47.22525" lon="5.44576">
        <ele>198.649536</ele>
        <time>2011-06-03T16:36:40Z</time>
      </trkpt>
      <trkpt lat="47.2244" lon="5.44415">
        <ele>198.168945</ele>
        <time>2011-06-03T16:37:04Z</time>
      </trkpt>
      <trkpt lat="47.22377" lon="5.44294">
        <ele>197.688232</ele>
        <time>2011-06-03T16:37:19Z</time>
      </trkpt>
      <trkpt lat="47.22273" lon="5.44095">
        <ele>197.20752</ele>
        <time>2011-06-03T16:37:41Z</time>
      </trkpt>
      <trkpt lat="47.22176" lon="5.43909">
        <ele>199.130127</ele>
        <time>2011-06-03T16:38:03Z</time>
      </trkpt>
      <trkpt lat="47.22101" lon="5.43767">
        <ele>196.246338</ele>
        <time>2011-06-03T16:38:20Z</time>
      </trkpt>
      <trkpt lat="47.22028" lon="5.43623">
        <ele>192.401123</ele>
        <time>2011-06-03T16:38:34Z</time>
      </trkpt>
      <trkpt lat="47.22004" lon="5.43579">
        <ele>190.958984</ele>
        <time>2011-06-03T16:38:38Z</time>
      </trkpt>
      <trkpt lat="47.21932" lon="5.43444">
        <ele>193.843018</ele>
        <time>2011-06-03T16:38:52Z</time>
      </trkpt>
      <trkpt lat="47.21825" lon="5.43239">
        <ele>197.20752</ele>
        <time>2011-06-03T16:39:17Z</time>
      </trkpt>
      <trkpt lat="47.21821" lon="5.4323">
        <ele>197.688232</ele>
        <time>2011-06-03T16:39:18Z</time>
      </trkpt>
      <trkpt lat="47.21712" lon="5.43022">
        <ele>197.688232</ele>
        <time>2011-06-03T16:39:43Z</time>
      </trkpt>
      <trkpt lat="47.2157" lon="5.42751">
        <ele>198.168945</ele>
        <time>2011-06-03T16:40:14Z</time>
      </trkpt>
      <trkpt lat="47.21432" lon="5.42488">
        <ele>197.688232</ele>
        <time>2011-06-03T16:40:43Z</time>
      </trkpt>
      <trkpt lat="47.213" lon="5.42232">
        <ele>198.649536</ele>
        <time>2011-06-03T16:41:11Z</time>
      </trkpt>
      <trkpt lat="47.21175" lon="5.41982">
        <ele>197.20752</ele>
        <time>2011-06-03T16:41:36Z</time>
      </trkpt>
      <trkpt lat="47.2107" lon="5.41772">
        <ele>195.765625</ele>
        <time>2011-06-03T16:41:57Z</time>
      </trkpt>
      <trkpt lat="47.21007" lon="5.41646">
        <ele>192.881714</ele>
        <time>2011-06-03T16:42:07Z</time>
      </trkpt>
      <trkpt lat="47.20954" lon="5.41539">
        <ele>189.516968</ele>
        <time>2011-06-03T16:42:15Z</time>
      </trkpt>
      <trkpt lat="47.20927" lon="5.41485">
        <ele>188.075073</ele>
        <time>2011-06-03T16:42:19Z</time>
      </trkpt>
      <trkpt lat="47.20894" lon="5.41417">
        <ele>186.152466</ele>
        <time>2011-06-03T16:42:24Z</time>
      </trkpt>
      <trkpt lat="47.20792" lon="5.41211">
        <ele>185.191162</ele>
        <time>2011-06-03T16:42:42Z</time>
      </trkpt>
      <trkpt lat="47.20639" lon="5.40905">
        <ele>185.671753</ele>
        <time>2011-06-03T16:43:11Z</time>
      </trkpt>
      <trkpt lat="47.20534" lon="5.40693">
        <ele>185.191162</ele>
        <time>2011-06-03T16:43:29Z</time>
      </trkpt>
      <trkpt lat="47.20414" lon="5.40452">
        <ele>184.710571</ele>
        <time>2011-06-03T16:43:50Z</time>
      </trkpt>
      <trkpt lat="47.20309" lon="5.4024">
        <ele>185.671753</ele>
        <time>2011-06-03T16:44:11Z</time>
      </trkpt>
      <trkpt lat="47.20207" lon="5.40029">
        <ele>187.59436</ele>
        <time>2011-06-03T16:44:31Z</time>
      </trkpt>
      <trkpt lat="47.20075" lon="5.39774">
        <ele>185.191162</ele>
        <time>2011-06-03T16:44:55Z</time>
      </trkpt>
      <trkpt lat="47.19991" lon="5.39607">
        <ele>187.59436</ele>
        <time>2011-06-03T16:45:13Z</time>
      </trkpt>
      <trkpt lat="47.19906" lon="5.39436">
        <ele>187.59436</ele>
        <time>2011-06-03T16:45:34Z</time>
      </trkpt>
      <trkpt lat="47.1977" lon="5.39158">
        <ele>187.11377</ele>
        <time>2011-06-03T16:46:05Z</time>
      </trkpt>
      <trkpt lat="47.19756" lon="5.39133">
        <ele>186.633179</ele>
        <time>2011-06-03T16:46:08Z</time>
      </trkpt>
      <trkpt lat="47.19748" lon="5.39104">
        <ele>186.152466</ele>
        <time>2011-06-03T16:46:11Z</time>
      </trkpt>
      <trkpt lat="47.1972" lon="5.39086">
        <ele>185.671753</ele>
        <time>2011-06-03T16:46:16Z</time>
      </trkpt>
      <trkpt lat="47.19585" lon="5.38987">
        <ele>186.152466</ele>
        <time>2011-06-03T16:46:39Z</time>
      </trkpt>
      <trkpt lat="47.19567" lon="5.38973">
        <ele>185.671753</ele>
        <time>2011-06-03T16:46:43Z</time>
      </trkpt>
      <trkpt lat="47.19546" lon="5.38939">
        <ele>185.191162</ele>
        <time>2011-06-03T16:46:54Z</time>
      </trkpt>
      <trkpt lat="47.19549" lon="5.38934">
        <ele>184.710571</ele>
        <time>2011-06-03T16:47:00Z</time>
      </trkpt>
      <trkpt lat="47.19549" lon="5.38935">
        <ele>184.710571</ele>
        <time>2011-06-03T16:47:15Z</time>
      </trkpt>
      <trkpt lat="47.1955" lon="5.38934">
        <ele>185.191162</ele>
        <time>2011-06-03T16:47:56Z</time>
      </trkpt>
      <trkpt lat="47.1955" lon="5.38935">
        <ele>185.671753</ele>
        <time>2011-06-03T16:48:35Z</time>
      </trkpt>
      <trkpt lat="47.19526" lon="5.38995">
        <ele>185.671753</ele>
        <time>2011-06-03T16:48:47Z</time>
      </trkpt>
      <trkpt lat="47.19508" lon="5.39037">
        <ele>185.671753</ele>
        <time>2011-06-03T16:48:55Z</time>
      </trkpt>
      <trkpt lat="47.19478" lon="5.39049">
        <ele>186.152466</ele>
        <time>2011-06-03T16:49:03Z</time>
      </trkpt>
      <trkpt lat="47.19379" lon="5.38997">
        <ele>186.152466</ele>
        <time>2011-06-03T16:49:23Z</time>
      </trkpt>
      <trkpt lat="47.19345" lon="5.38977">
        <ele>185.671753</ele>
        <time>2011-06-03T16:49:33Z</time>
      </trkpt>
      <trkpt lat="47.19293" lon="5.38948">
        <ele>185.191162</ele>
        <time>2011-06-03T16:49:46Z</time>
      </trkpt>
      <trkpt lat="47.19283" lon="5.38942">
        <ele>185.191162</ele>
        <time>2011-06-03T16:49:49Z</time>
      </trkpt>
      <trkpt lat="47.19271" lon="5.38933">
        <ele>184.710571</ele>
        <time>2011-06-03T16:49:52Z</time>
      </trkpt>
      <trkpt lat="47.19196" lon="5.38891">
        <ele>185.191162</ele>
        <time>2011-06-03T16:50:07Z</time>
      </trkpt>
      <trkpt lat="47.19167" lon="5.38873">
        <ele>184.710571</ele>
        <time>2011-06-03T16:50:12Z</time>
      </trkpt>
      <trkpt lat="47.19141" lon="5.38823">
        <ele>184.229858</ele>
        <time>2011-06-03T16:50:19Z</time>
      </trkpt>
      <trkpt lat="47.19138" lon="5.38791">
        <ele>184.229858</ele>
        <time>2011-06-03T16:50:26Z</time>
      </trkpt>
      <trkpt lat="47.19121" lon="5.38775">
        <ele>184.229858</ele>
        <time>2011-06-03T16:50:31Z</time>
      </trkpt>
      <trkpt lat="47.19112" lon="5.38776">
        <ele>184.710571</ele>
        <time>2011-06-03T16:50:33Z</time>
      </trkpt>
      <trkpt lat="47.19039" lon="5.38747">
        <ele>184.229858</ele>
        <time>2011-06-03T16:50:47Z</time>
      </trkpt>
      <trkpt lat="47.18945" lon="5.38701">
        <ele>183.749023</ele>
        <time>2011-06-03T16:51:03Z</time>
      </trkpt>
      <trkpt lat="47.18838" lon="5.38648">
        <ele>183.749023</ele>
        <time>2011-06-03T16:51:20Z</time>
      </trkpt>
      <trkpt lat="47.18707" lon="5.38586">
        <ele>183.749023</ele>
        <time>2011-06-03T16:51:40Z</time>
      </trkpt>
      <trkpt lat="47.18666" lon="5.38592">
        <ele>184.710571</ele>
        <time>2011-06-03T16:51:46Z</time>
      </trkpt>
      <trkpt lat="47.18581" lon="5.38608">
        <ele>188.075073</ele>
        <time>2011-06-03T16:52:01Z</time>
      </trkpt>
      <trkpt lat="47.18444" lon="5.38559">
        <ele>189.516968</ele>
        <time>2011-06-03T16:52:25Z</time>
      </trkpt>
      <trkpt lat="47.18369" lon="5.3854">
        <ele>186.152466</ele>
        <time>2011-06-03T16:52:34Z</time>
      </trkpt>
      <trkpt lat="47.18247" lon="5.38522">
        <ele>185.191162</ele>
        <time>2011-06-03T16:52:49Z</time>
      </trkpt>
      <trkpt lat="47.18072" lon="5.38524">
        <ele>184.229858</ele>
        <time>2011-06-03T16:53:13Z</time>
      </trkpt>
      <trkpt lat="47.1793" lon="5.38509">
        <ele>183.268433</ele>
        <time>2011-06-03T16:53:32Z</time>
      </trkpt>
      <trkpt lat="47.17738" lon="5.38453">
        <ele>183.749023</ele>
        <time>2011-06-03T16:53:57Z</time>
      </trkpt>
      <trkpt lat="47.17517" lon="5.38389">
        <ele>184.229858</ele>
        <time>2011-06-03T16:54:26Z</time>
      </trkpt>
      <trkpt lat="47.17301" lon="5.38313">
        <ele>184.229858</ele>
        <time>2011-06-03T16:54:53Z</time>
      </trkpt>
      <trkpt lat="47.17116" lon="5.38259">
        <ele>183.749023</ele>
        <time>2011-06-03T16:55:16Z</time>
      </trkpt>
      <trkpt lat="47.16892" lon="5.38247">
        <ele>183.749023</ele>
        <time>2011-06-03T16:55:44Z</time>
      </trkpt>
      <trkpt lat="47.16732" lon="5.38246">
        <ele>183.749023</ele>
        <time>2011-06-03T16:56:04Z</time>
      </trkpt>
      <trkpt lat="47.16578" lon="5.38163">
        <ele>183.749023</ele>
        <time>2011-06-03T16:56:24Z</time>
      </trkpt>
      <trkpt lat="47.1641" lon="5.38095">
        <ele>183.268433</ele>
        <time>2011-06-03T16:56:45Z</time>
      </trkpt>
      <trkpt lat="47.16272" lon="5.38055">
        <ele>184.710571</ele>
        <time>2011-06-03T16:57:04Z</time>
      </trkpt>
      <trkpt lat="47.16115" lon="5.37989">
        <ele>184.229858</ele>
        <time>2011-06-03T16:57:26Z</time>
      </trkpt>
      <trkpt lat="47.15987" lon="5.38001">
        <ele>184.229858</ele>
        <time>2011-06-03T16:57:43Z</time>
      </trkpt>
      <trkpt lat="47.15861" lon="5.38034">
        <ele>182.787842</ele>
        <time>2011-06-03T16:58:02Z</time>
      </trkpt>
      <trkpt lat="47.15816" lon="5.38048">
        <ele>182.307129</ele>
        <time>2011-06-03T16:58:09Z</time>
      </trkpt>
      <trkpt lat="47.15771" lon="5.38107">
        <ele>182.787842</ele>
        <time>2011-06-03T16:58:18Z</time>
      </trkpt>
      <trkpt lat="47.15741" lon="5.38187">
        <ele>182.787842</ele>
        <time>2011-06-03T16:58:27Z</time>
      </trkpt>
      <trkpt lat="47.15719" lon="5.38213">
        <ele>183.268433</ele>
        <time>2011-06-03T16:58:31Z</time>
      </trkpt>
      <trkpt lat="47.15634" lon="5.38239">
        <ele>183.268433</ele>
        <time>2011-06-03T16:58:43Z</time>
      </trkpt>
      <trkpt lat="47.15507" lon="5.3824">
        <ele>183.749023</ele>
        <time>2011-06-03T16:59:00Z</time>
      </trkpt>
      <trkpt lat="47.1541" lon="5.38302">
        <ele>183.268433</ele>
        <time>2011-06-03T16:59:15Z</time>
      </trkpt>
      <trkpt lat="47.15276" lon="5.38388">
        <ele>183.268433</ele>
        <time>2011-06-03T16:59:35Z</time>
      </trkpt>
      <trkpt lat="47.15159" lon="5.3847">
        <ele>182.307129</ele>
        <time>2011-06-03T16:59:53Z</time>
      </trkpt>
      <trkpt lat="47.15029" lon="5.38548">
        <ele>182.787842</ele>
        <time>2011-06-03T17:00:12Z</time>
      </trkpt>
      <trkpt lat="47.14887" lon="5.38637">
        <ele>183.749023</ele>
        <time>2011-06-03T17:00:33Z</time>
      </trkpt>
      <trkpt lat="47.14779" lon="5.38753">
        <ele>183.749023</ele>
        <time>2011-06-03T17:00:52Z</time>
      </trkpt>
      <trkpt lat="47.14684" lon="5.38849">
        <ele>183.749023</ele>
        <time>2011-06-03T17:01:08Z</time>
      </trkpt>
      <trkpt lat="47.14678" lon="5.38855">
        <ele>183.749023</ele>
        <time>2011-06-03T17:01:09Z</time>
      </trkpt>
      <trkpt lat="47.1462" lon="5.38861">
        <ele>184.229858</ele>
        <time>2011-06-03T17:01:18Z</time>
      </trkpt>
      <trkpt lat="47.14614" lon="5.38856">
        <ele>184.229858</ele>
        <time>2011-06-03T17:01:19Z</time>
      </trkpt>
      <trkpt lat="47.14488" lon="5.38751">
        <ele>184.710571</ele>
        <time>2011-06-03T17:01:40Z</time>
      </trkpt>
      <trkpt lat="47.14335" lon="5.38658">
        <ele>186.633179</ele>
        <time>2011-06-03T17:02:04Z</time>
      </trkpt>
      <trkpt lat="47.1424" lon="5.38594">
        <ele>189.516968</ele>
        <time>2011-06-03T17:02:21Z</time>
      </trkpt>
      <trkpt lat="47.14177" lon="5.38554">
        <ele>192.881714</ele>
        <time>2011-06-03T17:02:34Z</time>
      </trkpt>
      <trkpt lat="47.14067" lon="5.38473">
        <ele>194.804321</ele>
        <time>2011-06-03T17:02:55Z</time>
      </trkpt>
      <trkpt lat="47.13954" lon="5.38344">
        <ele>193.362305</ele>
        <time>2011-06-03T17:03:17Z</time>
      </trkpt>
      <trkpt lat="47.1385" lon="5.38243">
        <ele>190.478394</ele>
        <time>2011-06-03T17:03:34Z</time>
      </trkpt>
      <trkpt lat="47.13762" lon="5.38183">
        <ele>189.036377</ele>
        <time>2011-06-03T17:03:46Z</time>
      </trkpt>
      <trkpt lat="47.13667" lon="5.38114">
        <ele>185.671753</ele>
        <time>2011-06-03T17:03:58Z</time>
      </trkpt>
      <trkpt lat="47.13557" lon="5.38046">
        <ele>182.787842</ele>
        <time>2011-06-03T17:04:11Z</time>
      </trkpt>
      <trkpt lat="47.13436" lon="5.37973">
        <ele>184.710571</ele>
        <time>2011-06-03T17:04:28Z</time>
      </trkpt>
      <trkpt lat="47.1334" lon="5.37918">
        <ele>188.075073</ele>
        <time>2011-06-03T17:04:43Z</time>
      </trkpt>
      <trkpt lat="47.13182" lon="5.3783">
        <ele>189.036377</ele>
        <time>2011-06-03T17:05:06Z</time>
      </trkpt>
      <trkpt lat="47.13108" lon="5.37788">
        <ele>189.997681</ele>
        <time>2011-06-03T17:05:16Z</time>
      </trkpt>
      <trkpt lat="47.13007" lon="5.3773">
        <ele>193.362305</ele>
        <time>2011-06-03T17:05:32Z</time>
      </trkpt>
      <trkpt lat="47.12925" lon="5.37686">
        <ele>195.765625</ele>
        <time>2011-06-03T17:05:45Z</time>
      </trkpt>
      <trkpt lat="47.12829" lon="5.37633">
        <ele>196.726929</ele>
        <time>2011-06-03T17:06:00Z</time>
      </trkpt>
      <trkpt lat="47.12713" lon="5.3758">
        <ele>197.688232</ele>
        <time>2011-06-03T17:06:17Z</time>
      </trkpt>
      <trkpt lat="47.12564" lon="5.3756">
        <ele>197.20752</ele>
        <time>2011-06-03T17:06:36Z</time>
      </trkpt>
      <trkpt lat="47.12447" lon="5.37524">
        <ele>196.246338</ele>
        <time>2011-06-03T17:06:51Z</time>
      </trkpt>
      <trkpt lat="47.12369" lon="5.37423">
        <ele>196.246338</ele>
        <time>2011-06-03T17:07:03Z</time>
      </trkpt>
      <trkpt lat="47.12332" lon="5.37328">
        <ele>196.246338</ele>
        <time>2011-06-03T17:07:13Z</time>
      </trkpt>
      <trkpt lat="47.12274" lon="5.37212">
        <ele>192.881714</ele>
        <time>2011-06-03T17:07:25Z</time>
      </trkpt>
      <trkpt lat="47.12199" lon="5.37129">
        <ele>191.920288</ele>
        <time>2011-06-03T17:07:37Z</time>
      </trkpt>
      <trkpt lat="47.12182" lon="5.37113">
        <ele>191.920288</ele>
        <time>2011-06-03T17:07:40Z</time>
      </trkpt>
      <trkpt lat="47.12153" lon="5.37016">
        <ele>192.881714</ele>
        <time>2011-06-03T17:07:51Z</time>
      </trkpt>
      <trkpt lat="47.12127" lon="5.36905">
        <ele>189.997681</ele>
        <time>2011-06-03T17:08:05Z</time>
      </trkpt>
      <trkpt lat="47.12123" lon="5.36879">
        <ele>188.555786</ele>
        <time>2011-06-03T17:08:10Z</time>
      </trkpt>
      <trkpt lat="47.12108" lon="5.36882">
        <ele>189.036377</ele>
        <time>2011-06-03T17:08:15Z</time>
      </trkpt>
      <trkpt lat="47.1208" lon="5.36929">
        <ele>192.401123</ele>
        <time>2011-06-03T17:08:27Z</time>
      </trkpt>
      <trkpt lat="47.12037" lon="5.36979">
        <ele>194.32373</ele>
        <time>2011-06-03T17:08:45Z</time>
      </trkpt>
      <trkpt lat="47.12002" lon="5.37018">
        <ele>194.804321</ele>
        <time>2011-06-03T17:09:03Z</time>
      </trkpt>
      <trkpt lat="47.11981" lon="5.37051">
        <ele>194.804321</ele>
        <time>2011-06-03T17:09:21Z</time>
      </trkpt>
      <trkpt lat="47.11955" lon="5.37091">
        <ele>194.32373</ele>
        <time>2011-06-03T17:09:36Z</time>
      </trkpt>
      <trkpt lat="47.11924" lon="5.37152">
        <ele>193.843018</ele>
        <time>2011-06-03T17:09:46Z</time>
      </trkpt>
      <trkpt lat="47.11893" lon="5.37231">
        <ele>194.32373</ele>
        <time>2011-06-03T17:10:01Z</time>
      </trkpt>
      <trkpt lat="47.11876" lon="5.37314">
        <ele>194.32373</ele>
        <time>2011-06-03T17:10:21Z</time>
      </trkpt>
      <trkpt lat="47.11871" lon="5.37364">
        <ele>194.804321</ele>
        <time>2011-06-03T17:10:37Z</time>
      </trkpt>
      <trkpt lat="47.11869" lon="5.37373">
        <ele>194.32373</ele>
        <time>2011-06-03T17:10:51Z</time>
      </trkpt>
      <trkpt lat="47.1187" lon="5.37375">
        <ele>194.804321</ele>
        <time>2011-06-03T17:11:15Z</time>
      </trkpt>
      <trkpt lat="47.11873" lon="5.37368">
        <ele>195.284912</ele>
        <time>2011-06-03T17:11:19Z</time>
      </trkpt>
      <trkpt lat="47.11879" lon="5.37317">
        <ele>194.32373</ele>
        <time>2011-06-03T17:11:30Z</time>
      </trkpt>
      <trkpt lat="47.11875" lon="5.37321">
        <ele>194.32373</ele>
        <time>2011-06-03T17:11:38Z</time>
      </trkpt>
      <trkpt lat="47.1187" lon="5.37368">
        <ele>195.284912</ele>
        <time>2011-06-03T17:11:54Z</time>
      </trkpt>
      <trkpt lat="47.11864" lon="5.37466">
        <ele>196.246338</ele>
        <time>2011-06-03T17:12:11Z</time>
      </trkpt>
      <trkpt lat="47.11884" lon="5.37589">
        <ele>196.726929</ele>
        <time>2011-06-03T17:12:30Z</time>
      </trkpt>
      <trkpt lat="47.11887" lon="5.37723">
        <ele>194.804321</ele>
        <time>2011-06-03T17:12:45Z</time>
      </trkpt>
      <trkpt lat="47.11856" lon="5.3786">
        <ele>193.843018</ele>
        <time>2011-06-03T17:12:59Z</time>
      </trkpt>
      <trkpt lat="47.11789" lon="5.37993">
        <ele>195.284912</ele>
        <time>2011-06-03T17:13:17Z</time>
      </trkpt>
      <trkpt lat="47.11669" lon="5.38205">
        <ele>198.649536</ele>
        <time>2011-06-03T17:13:50Z</time>
      </trkpt>
      <trkpt lat="47.11586" lon="5.38368">
        <ele>200.572266</ele>
        <time>2011-06-03T17:14:16Z</time>
      </trkpt>
      <trkpt lat="47.11563" lon="5.38514">
        <ele>201.052856</ele>
        <time>2011-06-03T17:14:35Z</time>
      </trkpt>
      <trkpt lat="47.1157" lon="5.38738">
        <ele>202.014282</ele>
        <time>2011-06-03T17:15:02Z</time>
      </trkpt>
      <trkpt lat="47.11592" lon="5.38921">
        <ele>203.456177</ele>
        <time>2011-06-03T17:15:24Z</time>
      </trkpt>
      <trkpt lat="47.11627" lon="5.39074">
        <ele>204.41748</ele>
        <time>2011-06-03T17:15:42Z</time>
      </trkpt>
      <trkpt lat="47.11696" lon="5.39302">
        <ele>205.859497</ele>
        <time>2011-06-03T17:16:09Z</time>
      </trkpt>
      <trkpt lat="47.11749" lon="5.39471">
        <ele>202.494873</ele>
        <time>2011-06-03T17:16:27Z</time>
      </trkpt>
      <trkpt lat="47.11786" lon="5.39593">
        <ele>199.130127</ele>
        <time>2011-06-03T17:16:38Z</time>
      </trkpt>
      <trkpt lat="47.1183" lon="5.39736">
        <ele>201.533569</ele>
        <time>2011-06-03T17:16:54Z</time>
      </trkpt>
      <trkpt lat="47.11845" lon="5.39861">
        <ele>204.898071</ele>
        <time>2011-06-03T17:17:09Z</time>
      </trkpt>
      <trkpt lat="47.11823" lon="5.40037">
        <ele>204.898071</ele>
        <time>2011-06-03T17:17:29Z</time>
      </trkpt>
      <trkpt lat="47.1181" lon="5.403">
        <ele>205.378784</ele>
        <time>2011-06-03T17:17:57Z</time>
      </trkpt>
      <trkpt lat="47.11833" lon="5.4036">
        <ele>205.378784</ele>
        <time>2011-06-03T17:18:04Z</time>
      </trkpt>
      <trkpt lat="47.11889" lon="5.40487">
        <ele>203.456177</ele>
        <time>2011-06-03T17:18:19Z</time>
      </trkpt>
      <trkpt lat="47.11914" lon="5.40673">
        <ele>205.378784</ele>
        <time>2011-06-03T17:18:38Z</time>
      </trkpt>
      <trkpt lat="47.1189" lon="5.40813">
        <ele>206.340088</ele>
        <time>2011-06-03T17:18:53Z</time>
      </trkpt>
      <trkpt lat="47.11857" lon="5.40919">
        <ele>206.340088</ele>
        <time>2011-06-03T17:19:05Z</time>
      </trkpt>
      <trkpt lat="47.1185" lon="5.40946">
        <ele>206.340088</ele>
        <time>2011-06-03T17:19:08Z</time>
      </trkpt>
      <trkpt lat="47.11845" lon="5.40974">
        <ele>205.859497</ele>
        <time>2011-06-03T17:19:11Z</time>
      </trkpt>
      <trkpt lat="47.11811" lon="5.41126">
        <ele>206.820679</ele>
        <time>2011-06-03T17:19:30Z</time>
      </trkpt>
      <trkpt lat="47.11762" lon="5.41273">
        <ele>207.301392</ele>
        <time>2011-06-03T17:19:51Z</time>
      </trkpt>
      <trkpt lat="47.11703" lon="5.41446">
        <ele>207.782104</ele>
        <time>2011-06-03T17:20:15Z</time>
      </trkpt>
      <trkpt lat="47.11636" lon="5.41635">
        <ele>207.782104</ele>
        <time>2011-06-03T17:20:40Z</time>
      </trkpt>
      <trkpt lat="47.11575" lon="5.41805">
        <ele>207.782104</ele>
        <time>2011-06-03T17:21:04Z</time>
      </trkpt>
      <trkpt lat="47.11497" lon="5.42027">
        <ele>207.301392</ele>
        <time>2011-06-03T17:21:33Z</time>
      </trkpt>
      <trkpt lat="47.11439" lon="5.42184">
        <ele>208.262817</ele>
        <time>2011-06-03T17:21:55Z</time>
      </trkpt>
      <trkpt lat="47.11343" lon="5.42411">
        <ele>209.224121</ele>
        <time>2011-06-03T17:22:26Z</time>
      </trkpt>
      <trkpt lat="47.11266" lon="5.42554">
        <ele>208.743408</ele>
        <time>2011-06-03T17:22:49Z</time>
      </trkpt>
      <trkpt lat="47.11179" lon="5.42653">
        <ele>208.262817</ele>
        <time>2011-06-03T17:23:08Z</time>
      </trkpt>
      <trkpt lat="47.11055" lon="5.42796">
        <ele>209.224121</ele>
        <time>2011-06-03T17:23:33Z</time>
      </trkpt>
      <trkpt lat="47.10912" lon="5.42915">
        <ele>209.224121</ele>
        <time>2011-06-03T17:23:58Z</time>
      </trkpt>
      <trkpt lat="47.10884" lon="5.42944">
        <ele>210.185425</ele>
        <time>2011-06-03T17:24:03Z</time>
      </trkpt>
      <trkpt lat="47.10851" lon="5.43057">
        <ele>210.185425</ele>
        <time>2011-06-03T17:24:16Z</time>
      </trkpt>
      <trkpt lat="47.10832" lon="5.43197">
        <ele>210.666016</ele>
        <time>2011-06-03T17:24:31Z</time>
      </trkpt>
      <trkpt lat="47.10788" lon="5.43309">
        <ele>213.550049</ele>
        <time>2011-06-03T17:24:46Z</time>
      </trkpt>
      <trkpt lat="47.10744" lon="5.43393">
        <ele>216.914673</ele>
        <time>2011-06-03T17:24:59Z</time>
      </trkpt>
      <trkpt lat="47.10664" lon="5.43511">
        <ele>215.472656</ele>
        <time>2011-06-03T17:25:19Z</time>
      </trkpt>
      <trkpt lat="47.10653" lon="5.43535">
        <ele>214.991943</ele>
        <time>2011-06-03T17:25:29Z</time>
      </trkpt>
      <trkpt lat="47.10645" lon="5.43567">
        <ele>214.991943</ele>
        <time>2011-06-03T17:25:50Z</time>
      </trkpt>
      <trkpt lat="47.10621" lon="5.43663">
        <ele>215.953247</ele>
        <time>2011-06-03T17:26:09Z</time>
      </trkpt>
      <trkpt lat="47.10619" lon="5.43668">
        <ele>215.953247</ele>
        <time>2011-06-03T17:26:10Z</time>
      </trkpt>
      <trkpt lat="47.10594" lon="5.43701">
        <ele>215.953247</ele>
        <time>2011-06-03T17:26:17Z</time>
      </trkpt>
      <trkpt lat="47.10538" lon="5.43743">
        <ele>215.953247</ele>
        <time>2011-06-03T17:26:30Z</time>
      </trkpt>
      <trkpt lat="47.10524" lon="5.43766">
        <ele>215.953247</ele>
        <time>2011-06-03T17:26:35Z</time>
      </trkpt>
      <trkpt lat="47.10508" lon="5.43868">
        <ele>216.914673</ele>
        <time>2011-06-03T17:26:50Z</time>
      </trkpt>
      <trkpt lat="47.10505" lon="5.4399">
        <ele>218.83728</ele>
        <time>2011-06-03T17:27:06Z</time>
      </trkpt>
      <trkpt lat="47.10517" lon="5.4403">
        <ele>220.759888</ele>
        <time>2011-06-03T17:27:12Z</time>
      </trkpt>
      <trkpt lat="47.10563" lon="5.44129">
        <ele>224.605225</ele>
        <time>2011-06-03T17:27:30Z</time>
      </trkpt>
      <trkpt lat="47.1058" lon="5.44268">
        <ele>227.489136</ele>
        <time>2011-06-03T17:27:50Z</time>
      </trkpt>
      <trkpt lat="47.10583" lon="5.44357">
        <ele>230.85376</ele>
        <time>2011-06-03T17:28:03Z</time>
      </trkpt>
      <trkpt lat="47.10581" lon="5.44476">
        <ele>234.218384</ele>
        <time>2011-06-03T17:28:20Z</time>
      </trkpt>
      <trkpt lat="47.10568" lon="5.44567">
        <ele>237.102295</ele>
        <time>2011-06-03T17:28:34Z</time>
      </trkpt>
      <trkpt lat="47.10556" lon="5.44659">
        <ele>240.947632</ele>
        <time>2011-06-03T17:28:49Z</time>
      </trkpt>
      <trkpt lat="47.10552" lon="5.44736">
        <ele>243.831543</ele>
        <time>2011-06-03T17:29:02Z</time>
      </trkpt>
      <trkpt lat="47.10548" lon="5.44817">
        <ele>246.715454</ele>
        <time>2011-06-03T17:29:16Z</time>
      </trkpt>
      <trkpt lat="47.10539" lon="5.44904">
        <ele>250.0802</ele>
        <time>2011-06-03T17:29:32Z</time>
      </trkpt>
      <trkpt lat="47.10523" lon="5.44988">
        <ele>252.963989</ele>
        <time>2011-06-03T17:29:48Z</time>
      </trkpt>
      <trkpt lat="47.10496" lon="5.45074">
        <ele>256.328735</ele>
        <time>2011-06-03T17:30:03Z</time>
      </trkpt>
      <trkpt lat="47.10493" lon="5.45123">
        <ele>256.809326</ele>
        <time>2011-06-03T17:30:11Z</time>
      </trkpt>
      <trkpt lat="47.10509" lon="5.45242">
        <ele>258.251343</ele>
        <time>2011-06-03T17:30:29Z</time>
      </trkpt>
      <trkpt lat="47.10506" lon="5.45375">
        <ele>256.328735</ele>
        <time>2011-06-03T17:30:44Z</time>
      </trkpt>
      <trkpt lat="47.10484" lon="5.45457">
        <ele>253.925415</ele>
        <time>2011-06-03T17:30:51Z</time>
      </trkpt>
      <trkpt lat="47.10445" lon="5.45624">
        <ele>250.560791</ele>
        <time>2011-06-03T17:31:06Z</time>
      </trkpt>
      <trkpt lat="47.10403" lon="5.45771">
        <ele>251.041382</ele>
        <time>2011-06-03T17:31:22Z</time>
      </trkpt>
      <trkpt lat="47.10358" lon="5.45916">
        <ele>247.676758</ele>
        <time>2011-06-03T17:31:36Z</time>
      </trkpt>
      <trkpt lat="47.10341" lon="5.45999">
        <ele>246.234863</ele>
        <time>2011-06-03T17:31:43Z</time>
      </trkpt>
      <trkpt lat="47.10314" lon="5.46035">
        <ele>244.792847</ele>
        <time>2011-06-03T17:31:48Z</time>
      </trkpt>
      <trkpt lat="47.103" lon="5.46037">
        <ele>242.870239</ele>
        <time>2011-06-03T17:31:57Z</time>
      </trkpt>
      <trkpt lat="47.103" lon="5.46036">
        <ele>243.35083</ele>
        <time>2011-06-03T17:33:13Z</time>
      </trkpt>
      <trkpt lat="47.103" lon="5.46037">
        <ele>242.870239</ele>
        <time>2011-06-03T17:33:50Z</time>
      </trkpt>
      <trkpt lat="47.10299" lon="5.46037">
        <ele>243.35083</ele>
        <time>2011-06-03T17:34:25Z</time>
      </trkpt>
      <trkpt lat="47.10258" lon="5.46019">
        <ele>243.35083</ele>
        <time>2011-06-03T17:34:38Z</time>
      </trkpt>
      <trkpt lat="47.10167" lon="5.45972">
        <ele>242.870239</ele>
        <time>2011-06-03T17:35:00Z</time>
      </trkpt>
      <trkpt lat="47.10133" lon="5.45971">
        <ele>242.389648</ele>
        <time>2011-06-03T17:35:07Z</time>
      </trkpt>
      <trkpt lat="47.10102" lon="5.45948">
        <ele>241.428223</ele>
        <time>2011-06-03T17:35:13Z</time>
      </trkpt>
      <trkpt lat="47.10094" lon="5.45935">
        <ele>240.947632</ele>
        <time>2011-06-03T17:35:15Z</time>
      </trkpt>
      <trkpt lat="47.10046" lon="5.45916">
        <ele>240.467041</ele>
        <time>2011-06-03T17:35:23Z</time>
      </trkpt>
      <trkpt lat="47.0999" lon="5.4593">
        <ele>239.986206</ele>
        <time>2011-06-03T17:35:32Z</time>
      </trkpt>
      <trkpt lat="47.09923" lon="5.45935">
        <ele>238.544312</ele>
        <time>2011-06-03T17:35:43Z</time>
      </trkpt>
      <trkpt lat="47.09888" lon="5.45935">
        <ele>237.102295</ele>
        <time>2011-06-03T17:35:48Z</time>
      </trkpt>
      <trkpt lat="47.09801" lon="5.45912">
        <ele>233.737671</ele>
        <time>2011-06-03T17:35:59Z</time>
      </trkpt>
      <trkpt lat="47.09692" lon="5.45882">
        <ele>230.85376</ele>
        <time>2011-06-03T17:36:12Z</time>
      </trkpt>
      <trkpt lat="47.096" lon="5.45869">
        <ele>227.489136</ele>
        <time>2011-06-03T17:36:23Z</time>
      </trkpt>
      <trkpt lat="47.09557" lon="5.45862">
        <ele>226.527832</ele>
        <time>2011-06-03T17:36:28Z</time>
      </trkpt>
      <trkpt lat="47.09517" lon="5.45845">
        <ele>225.566528</ele>
        <time>2011-06-03T17:36:33Z</time>
      </trkpt>
      <trkpt lat="47.09435" lon="5.45756">
        <ele>223.643799</ele>
        <time>2011-06-03T17:36:45Z</time>
      </trkpt>
      <trkpt lat="47.09387" lon="5.45759">
        <ele>222.201782</ele>
        <time>2011-06-03T17:36:52Z</time>
      </trkpt>
      <trkpt lat="47.09361" lon="5.45783">
        <ele>221.721191</ele>
        <time>2011-06-03T17:36:56Z</time>
      </trkpt>
      <trkpt lat="47.09318" lon="5.45789">
        <ele>221.240601</ele>
        <time>2011-06-03T17:37:02Z</time>
      </trkpt>
      <trkpt lat="47.09171" lon="5.45746">
        <ele>219.798584</ele>
        <time>2011-06-03T17:37:21Z</time>
      </trkpt>
      <trkpt lat="47.09164" lon="5.45744">
        <ele>219.798584</ele>
        <time>2011-06-03T17:37:22Z</time>
      </trkpt>
      <trkpt lat="47.09076" lon="5.45772">
        <ele>216.914673</ele>
        <time>2011-06-03T17:37:34Z</time>
      </trkpt>
      <trkpt lat="47.09068" lon="5.45775">
        <ele>216.914673</ele>
        <time>2011-06-03T17:37:35Z</time>
      </trkpt>
      <trkpt lat="47.09023" lon="5.45773">
        <ele>215.953247</ele>
        <time>2011-06-03T17:37:40Z</time>
      </trkpt>
      <trkpt lat="47.08906" lon="5.45707">
        <ele>214.51123</ele>
        <time>2011-06-03T17:37:56Z</time>
      </trkpt>
      <trkpt lat="47.0878" lon="5.45619">
        <ele>215.472656</ele>
        <time>2011-06-03T17:38:17Z</time>
      </trkpt>
      <trkpt lat="47.08666" lon="5.45499">
        <ele>214.991943</ele>
        <time>2011-06-03T17:38:39Z</time>
      </trkpt>
      <trkpt lat="47.08663" lon="5.45493">
        <ele>214.991943</ele>
        <time>2011-06-03T17:38:40Z</time>
      </trkpt>
      <trkpt lat="47.08626" lon="5.45479">
        <ele>214.51123</ele>
        <time>2011-06-03T17:38:48Z</time>
      </trkpt>
      <trkpt lat="47.08523" lon="5.45528">
        <ele>212.588623</ele>
        <time>2011-06-03T17:39:04Z</time>
      </trkpt>
      <trkpt lat="47.08444" lon="5.45557">
        <ele>210.666016</ele>
        <time>2011-06-03T17:39:17Z</time>
      </trkpt>
      <trkpt lat="47.08425" lon="5.4556">
        <ele>210.185425</ele>
        <time>2011-06-03T17:39:28Z</time>
      </trkpt>
      <trkpt lat="47.08402" lon="5.45566">
        <ele>210.185425</ele>
        <time>2011-06-03T17:39:34Z</time>
      </trkpt>
      <trkpt lat="47.08357" lon="5.45588">
        <ele>209.704834</ele>
        <time>2011-06-03T17:39:43Z</time>
      </trkpt>
      <trkpt lat="47.08338" lon="5.45596">
        <ele>209.704834</ele>
        <time>2011-06-03T17:39:47Z</time>
      </trkpt>
      <trkpt lat="47.0833" lon="5.45619">
        <ele>209.704834</ele>
        <time>2011-06-03T17:39:51Z</time>
      </trkpt>
      <trkpt lat="47.08278" lon="5.45669">
        <ele>210.185425</ele>
        <time>2011-06-03T17:40:02Z</time>
      </trkpt>
      <trkpt lat="47.08179" lon="5.45764">
        <ele>212.108032</ele>
        <time>2011-06-03T17:40:22Z</time>
      </trkpt>
      <trkpt lat="47.08116" lon="5.45835">
        <ele>214.03064</ele>
        <time>2011-06-03T17:40:38Z</time>
      </trkpt>
      <trkpt lat="47.08101" lon="5.45845">
        <ele>214.51123</ele>
        <time>2011-06-03T17:40:42Z</time>
      </trkpt>
      <trkpt lat="47.08095" lon="5.45879">
        <ele>215.953247</ele>
        <time>2011-06-03T17:40:49Z</time>
      </trkpt>
      <trkpt lat="47.08099" lon="5.4592">
        <ele>216.43396</ele>
        <time>2011-06-03T17:40:56Z</time>
      </trkpt>
      <trkpt lat="47.08079" lon="5.46028">
        <ele>219.798584</ele>
        <time>2011-06-03T17:41:14Z</time>
      </trkpt>
      <trkpt lat="47.0806" lon="5.4613">
        <ele>223.163208</ele>
        <time>2011-06-03T17:41:31Z</time>
      </trkpt>
      <trkpt lat="47.0804" lon="5.46213">
        <ele>226.047119</ele>
        <time>2011-06-03T17:41:45Z</time>
      </trkpt>
      <trkpt lat="47.08015" lon="5.46298">
        <ele>229.411743</ele>
        <time>2011-06-03T17:42:01Z</time>
      </trkpt>
      <trkpt lat="47.07996" lon="5.46324">
        <ele>231.334351</ele>
        <time>2011-06-03T17:42:10Z</time>
      </trkpt>
      <trkpt lat="47.07998" lon="5.46338">
        <ele>231.334351</ele>
        <time>2011-06-03T17:42:13Z</time>
      </trkpt>
      <trkpt lat="47.08014" lon="5.46369">
        <ele>231.334351</ele>
        <time>2011-06-03T17:42:19Z</time>
      </trkpt>
      <trkpt lat="47.08067" lon="5.46493">
        <ele>231.334351</ele>
        <time>2011-06-03T17:42:39Z</time>
      </trkpt>
      <trkpt lat="47.0809" lon="5.46535">
        <ele>230.85376</ele>
        <time>2011-06-03T17:42:45Z</time>
      </trkpt>
      <trkpt lat="47.08136" lon="5.46624">
        <ele>234.218384</ele>
        <time>2011-06-03T17:42:57Z</time>
      </trkpt>
      <trkpt lat="47.0815" lon="5.4665">
        <ele>235.660278</ele>
        <time>2011-06-03T17:43:01Z</time>
      </trkpt>
      <trkpt lat="47.08173" lon="5.46693">
        <ele>237.582886</ele>
        <time>2011-06-03T17:43:08Z</time>
      </trkpt>
      <trkpt lat="47.08191" lon="5.46816">
        <ele>240.467041</ele>
        <time>2011-06-03T17:43:24Z</time>
      </trkpt>
      <trkpt lat="47.08177" lon="5.46902">
        <ele>241.428223</ele>
        <time>2011-06-03T17:43:38Z</time>
      </trkpt>
      <trkpt lat="47.08175" lon="5.4692">
        <ele>241.428223</ele>
        <time>2011-06-03T17:43:52Z</time>
      </trkpt>
      <trkpt lat="47.08169" lon="5.46948">
        <ele>242.870239</ele>
        <time>2011-06-03T17:44:06Z</time>
      </trkpt>
      <trkpt lat="47.08172" lon="5.47072">
        <ele>243.831543</ele>
        <time>2011-06-03T17:44:23Z</time>
      </trkpt>
      <trkpt lat="47.08182" lon="5.47214">
        <ele>245.273438</ele>
        <time>2011-06-03T17:44:42Z</time>
      </trkpt>
      <trkpt lat="47.08191" lon="5.47353">
        <ele>245.75415</ele>
        <time>2011-06-03T17:45:00Z</time>
      </trkpt>
      <trkpt lat="47.08181" lon="5.47472">
        <ele>241.908936</ele>
        <time>2011-06-03T17:45:13Z</time>
      </trkpt>
      <trkpt lat="47.08171" lon="5.47502">
        <ele>240.467041</ele>
        <time>2011-06-03T17:45:16Z</time>
      </trkpt>
      <trkpt lat="47.08155" lon="5.47538">
        <ele>237.102295</ele>
        <time>2011-06-03T17:45:21Z</time>
      </trkpt>
      <trkpt lat="47.08146" lon="5.47559">
        <ele>235.660278</ele>
        <time>2011-06-03T17:45:25Z</time>
      </trkpt>
      <trkpt lat="47.08131" lon="5.4757">
        <ele>235.179688</ele>
        <time>2011-06-03T17:45:29Z</time>
      </trkpt>
      <trkpt lat="47.08121" lon="5.47571">
        <ele>235.179688</ele>
        <time>2011-06-03T17:45:31Z</time>
      </trkpt>
      <trkpt lat="47.08091" lon="5.47627">
        <ele>234.699097</ele>
        <time>2011-06-03T17:45:40Z</time>
      </trkpt>
      <trkpt lat="47.08097" lon="5.47652">
        <ele>234.218384</ele>
        <time>2011-06-03T17:45:43Z</time>
      </trkpt>
      <trkpt lat="47.08103" lon="5.47669">
        <ele>233.737671</ele>
        <time>2011-06-03T17:45:45Z</time>
      </trkpt>
      <trkpt lat="47.08102" lon="5.47707">
        <ele>232.776489</ele>
        <time>2011-06-03T17:45:49Z</time>
      </trkpt>
      <trkpt lat="47.08079" lon="5.478">
        <ele>230.373047</ele>
        <time>2011-06-03T17:45:58Z</time>
      </trkpt>
      <trkpt lat="47.08045" lon="5.47929">
        <ele>227.489136</ele>
        <time>2011-06-03T17:46:09Z</time>
      </trkpt>
      <trkpt lat="47.08028" lon="5.47987">
        <ele>225.566528</ele>
        <time>2011-06-03T17:46:14Z</time>
      </trkpt>
      <trkpt lat="47.07999" lon="5.48094">
        <ele>222.682495</ele>
        <time>2011-06-03T17:46:23Z</time>
      </trkpt>
      <trkpt lat="47.07973" lon="5.48195">
        <ele>219.798584</ele>
        <time>2011-06-03T17:46:32Z</time>
      </trkpt>
      <trkpt lat="47.07942" lon="5.4831">
        <ele>216.43396</ele>
        <time>2011-06-03T17:46:42Z</time>
      </trkpt>
      <trkpt lat="47.07903" lon="5.48458">
        <ele>212.588623</ele>
        <time>2011-06-03T17:46:54Z</time>
      </trkpt>
      <trkpt lat="47.07869" lon="5.48586">
        <ele>209.224121</ele>
        <time>2011-06-03T17:47:04Z</time>
      </trkpt>
      <trkpt lat="47.07845" lon="5.48674">
        <ele>206.340088</ele>
        <time>2011-06-03T17:47:11Z</time>
      </trkpt>
      <trkpt lat="47.07839" lon="5.48698">
        <ele>205.378784</ele>
        <time>2011-06-03T17:47:13Z</time>
      </trkpt>
      <trkpt lat="47.07801" lon="5.48835">
        <ele>202.014282</ele>
        <time>2011-06-03T17:47:25Z</time>
      </trkpt>
      <trkpt lat="47.07791" lon="5.48865">
        <ele>201.052856</ele>
        <time>2011-06-03T17:47:28Z</time>
      </trkpt>
      <trkpt lat="47.07766" lon="5.48887">
        <ele>201.052856</ele>
        <time>2011-06-03T17:47:33Z</time>
      </trkpt>
      <trkpt lat="47.07752" lon="5.489">
        <ele>201.052856</ele>
        <time>2011-06-03T17:47:36Z</time>
      </trkpt>
      <trkpt lat="47.07719" lon="5.48894">
        <ele>200.572266</ele>
        <time>2011-06-03T17:47:42Z</time>
      </trkpt>
      <trkpt lat="47.07692" lon="5.48944">
        <ele>201.533569</ele>
        <time>2011-06-03T17:47:50Z</time>
      </trkpt>
      <trkpt lat="47.07672" lon="5.48994">
        <ele>201.533569</ele>
        <time>2011-06-03T17:47:56Z</time>
      </trkpt>
      <trkpt lat="47.07601" lon="5.4909">
        <ele>202.014282</ele>
        <time>2011-06-03T17:48:10Z</time>
      </trkpt>
      <trkpt lat="47.0755" lon="5.49109">
        <ele>201.052856</ele>
        <time>2011-06-03T17:48:18Z</time>
      </trkpt>
      <trkpt lat="47.07529" lon="5.49082">
        <ele>200.572266</ele>
        <time>2011-06-03T17:48:22Z</time>
      </trkpt>
      <trkpt lat="47.07524" lon="5.49071">
        <ele>200.091675</ele>
        <time>2011-06-03T17:48:24Z</time>
      </trkpt>
      <trkpt lat="47.07519" lon="5.4907">
        <ele>199.130127</ele>
        <time>2011-06-03T17:48:31Z</time>
      </trkpt>
      <trkpt lat="47.07518" lon="5.49073">
        <ele>199.130127</ele>
        <time>2011-06-03T17:48:56Z</time>
      </trkpt>
      <trkpt lat="47.07519" lon="5.49073">
        <ele>199.130127</ele>
        <time>2011-06-03T17:49:55Z</time>
      </trkpt>
    </trkseg>
  </trk>
</gpx>